<?xml version="1.0" encoding="UTF-8" standalone="no" ?><gpx xmlns="http://www.topografix.com/GPX/1/1" xmlns:gpxx="http://www.garmin.com/xmlschemas/GpxExtensions/v3" xmlns:wptx1="http://www.garmin.com/xmlschemas/WaypointExtension/v1" xmlns:gpxtpx="http://www.garmin.com/xmlschemas/TrackPointExtension/v1" creator="Alpha 50 EU" version="1.1" xmlns:xsi="http://www.w3.org/2001/XMLSchema-instance" xsi:schemaLocation="http://www.topografix.com/GPX/1/1 http://www.topografix.com/GPX/1/1/gpx.xsd http://www.garmin.com/xmlschemas/GpxExtensions/v3 http://www8.garmin.com/xmlschemas/GpxExtensionsv3.xsd http://www.garmin.com/xmlschemas/WaypointExtension/v1 http://www8.garmin.com/xmlschemas/WaypointExtensionv1.xsd http://www.garmin.com/xmlschemas/TrackPointExtension/v1 http://www.garmin.com/xmlschemas/TrackPointExtensionv1.xsd"><metadata><link href="http://www.garmin.com"><text>Garmin International</text></link><time>2026-04-25T14:20:44Z</time></metadata><trk><name>2026-04-25 17:20:41</name><extensions><gpxx:TrackExtension><gpxx:DisplayColor>Black</gpxx:DisplayColor></gpxx:TrackExtension></extensions><trkseg><trkpt lat="59.0633990429" lon="30.0310410094"><ele>73.68</ele><time>2026-04-25T08:42:37Z</time></trkpt><trkpt lat="59.0633935109" lon="30.0310586952"><ele>75.12</ele><time>2026-04-25T08:43:00Z</time></trkpt><trkpt lat="59.0633846261" lon="30.0310965814"><ele>75.12</ele><time>2026-04-25T08:43:15Z</time></trkpt><trkpt lat="59.0633143857" lon="30.0311986730"><ele>75.12</ele><time>2026-04-25T08:43:37Z</time></trkpt><trkpt lat="59.0633317363" lon="30.0311798137"><ele>75.12</ele><time>2026-04-25T08:43:38Z</time></trkpt><trkpt lat="59.0634384379" lon="30.0310146064"><ele>75.12</ele><time>2026-04-25T08:43:59Z</time></trkpt><trkpt lat="59.0634980332" lon="30.0309792347"><ele>75.12</ele><time>2026-04-25T08:44:03Z</time></trkpt><trkpt lat="59.0635642502" lon="30.0309279375"><ele>75.12</ele><time>2026-04-25T08:44:15Z</time></trkpt><trkpt lat="59.0636142064" lon="30.0308641512"><ele>74.16</ele><time>2026-04-25T08:44:32Z</time></trkpt><trkpt lat="59.0637094248" lon="30.0309055578"><ele>73.68</ele><time>2026-04-25T08:44:51Z</time></trkpt><trkpt lat="59.0637727082" lon="30.0308034662"><ele>73.68</ele><time>2026-04-25T08:45:05Z</time></trkpt><trkpt lat="59.0638328064" lon="30.0306593813"><ele>73.68</ele><time>2026-04-25T08:45:23Z</time></trkpt><trkpt lat="59.0638480615" lon="30.0306209084"><ele>73.68</ele><time>2026-04-25T08:45:46Z</time></trkpt><trkpt lat="59.0638872050" lon="30.0306518376"><ele>73.68</ele><time>2026-04-25T08:46:03Z</time></trkpt><trkpt lat="59.0639305394" lon="30.0307755545"><ele>73.68</ele><time>2026-04-25T08:46:20Z</time></trkpt><trkpt lat="59.0639933199" lon="30.0307704415"><ele>73.68</ele><time>2026-04-25T08:46:36Z</time></trkpt><trkpt lat="59.0640278533" lon="30.0307135284"><ele>73.68</ele><time>2026-04-25T08:46:42Z</time></trkpt><trkpt lat="59.0640469640" lon="30.0307061523"><ele>73.68</ele><time>2026-04-25T08:46:44Z</time></trkpt><trkpt lat="59.0641610418" lon="30.0307595450"><ele>73.68</ele><time>2026-04-25T08:46:56Z</time></trkpt><trkpt lat="59.0643166937" lon="30.0307159591"><ele>73.68</ele><time>2026-04-25T08:47:22Z</time></trkpt><trkpt lat="59.0644086432" lon="30.0305683538"><ele>73.68</ele><time>2026-04-25T08:47:36Z</time></trkpt><trkpt lat="59.0648616850" lon="30.0304131210"><ele>73.68</ele><time>2026-04-25T08:48:15Z</time></trkpt><trkpt lat="59.0651359409" lon="30.0303537771"><ele>73.68</ele><time>2026-04-25T08:48:40Z</time></trkpt><trkpt lat="59.0653274674" lon="30.0302990433"><ele>74.64</ele><time>2026-04-25T08:48:56Z</time></trkpt><trkpt lat="59.0655080974" lon="30.0302393641"><ele>74.64</ele><time>2026-04-25T08:49:11Z</time></trkpt><trkpt lat="59.0656727180" lon="30.0301077683"><ele>74.64</ele><time>2026-04-25T08:49:27Z</time></trkpt><trkpt lat="59.0658149589" lon="30.0301097799"><ele>74.64</ele><time>2026-04-25T08:49:46Z</time></trkpt><trkpt lat="59.0659192298" lon="30.0300228596"><ele>74.64</ele><time>2026-04-25T08:50:01Z</time></trkpt><trkpt lat="59.0660634823" lon="30.0300522801"><ele>74.64</ele><time>2026-04-25T08:50:25Z</time></trkpt><trkpt lat="59.0662280191" lon="30.0299833808"><ele>74.16</ele><time>2026-04-25T08:50:52Z</time></trkpt><trkpt lat="59.0663485508" lon="30.0299492665"><ele>75.12</ele><time>2026-04-25T08:51:09Z</time></trkpt><trkpt lat="59.0666324459" lon="30.0298509467"><ele>74.64</ele><time>2026-04-25T08:51:44Z</time></trkpt><trkpt lat="59.0668015927" lon="30.0298190117"><ele>74.64</ele><time>2026-04-25T08:52:03Z</time></trkpt><trkpt lat="59.0670850687" lon="30.0297139026"><ele>74.64</ele><time>2026-04-25T08:52:31Z</time></trkpt><trkpt lat="59.0672330931" lon="30.0296509545"><ele>75.12</ele><time>2026-04-25T08:52:47Z</time></trkpt><trkpt lat="59.0673692152" lon="30.0296034291"><ele>75.12</ele><time>2026-04-25T08:53:03Z</time></trkpt><trkpt lat="59.0676969476" lon="30.0294720009"><ele>75.12</ele><time>2026-04-25T08:53:39Z</time></trkpt><trkpt lat="59.0678665973" lon="30.0293660536"><ele>75.12</ele><time>2026-04-25T08:54:00Z</time></trkpt><trkpt lat="59.0681493189" lon="30.0293492060"><ele>75.12</ele><time>2026-04-25T08:54:27Z</time></trkpt><trkpt lat="59.0682905540" lon="30.0293113198"><ele>75.60</ele><time>2026-04-25T08:54:46Z</time></trkpt><trkpt lat="59.0684599523" lon="30.0292523950"><ele>75.60</ele><time>2026-04-25T08:55:10Z</time></trkpt><trkpt lat="59.0686992556" lon="30.0291307736"><ele>75.60</ele><time>2026-04-25T08:55:36Z</time></trkpt><trkpt lat="59.0689114854" lon="30.0290286820"><ele>75.60</ele><time>2026-04-25T08:56:00Z</time></trkpt><trkpt lat="59.0690718312" lon="30.0289794803"><ele>75.60</ele><time>2026-04-25T08:56:16Z</time></trkpt><trkpt lat="59.0691793710" lon="30.0289662369"><ele>76.08</ele><time>2026-04-25T08:56:30Z</time></trkpt><trkpt lat="59.0694681276" lon="30.0288737845"><ele>78.00</ele><time>2026-04-25T08:56:59Z</time></trkpt><trkpt lat="59.0696512721" lon="30.0288043823"><ele>76.56</ele><time>2026-04-25T08:57:20Z</time></trkpt><trkpt lat="59.0698464029" lon="30.0286456291"><ele>76.56</ele><time>2026-04-25T08:57:40Z</time></trkpt><trkpt lat="59.0700391866" lon="30.0286768097"><ele>76.56</ele><time>2026-04-25T08:57:59Z</time></trkpt><trkpt lat="59.0701970179" lon="30.0286166277"><ele>76.56</ele><time>2026-04-25T08:58:17Z</time></trkpt><trkpt lat="59.0704691783" lon="30.0285274442"><ele>76.56</ele><time>2026-04-25T08:58:45Z</time></trkpt><trkpt lat="59.0706440248" lon="30.0284642447"><ele>76.56</ele><time>2026-04-25T08:59:03Z</time></trkpt><trkpt lat="59.0707676578" lon="30.0284035597"><ele>76.56</ele><time>2026-04-25T08:59:19Z</time></trkpt><trkpt lat="59.0709659737" lon="30.0283381809"><ele>76.56</ele><time>2026-04-25T08:59:37Z</time></trkpt><trkpt lat="59.0711145848" lon="30.0282617379"><ele>76.56</ele><time>2026-04-25T08:59:57Z</time></trkpt><trkpt lat="59.0712659620" lon="30.0282020587"><ele>76.56</ele><time>2026-04-25T09:00:15Z</time></trkpt><trkpt lat="59.0715022478" lon="30.0281584729"><ele>76.56</ele><time>2026-04-25T09:00:39Z</time></trkpt><trkpt lat="59.0716559719" lon="30.0281266216"><ele>76.56</ele><time>2026-04-25T09:00:58Z</time></trkpt><trkpt lat="59.0718786791" lon="30.0281389430"><ele>76.56</ele><time>2026-04-25T09:01:27Z</time></trkpt><trkpt lat="59.0719965287" lon="30.0280588958"><ele>75.60</ele><time>2026-04-25T09:01:41Z</time></trkpt><trkpt lat="59.0721875522" lon="30.0281055830"><ele>75.60</ele><time>2026-04-25T09:02:02Z</time></trkpt><trkpt lat="59.0724326391" lon="30.0279095303"><ele>75.60</ele><time>2026-04-25T09:02:41Z</time></trkpt><trkpt lat="59.0727187973" lon="30.0278112106"><ele>75.60</ele><time>2026-04-25T09:03:20Z</time></trkpt><trkpt lat="59.0728882793" lon="30.0277040061"><ele>75.60</ele><time>2026-04-25T09:03:43Z</time></trkpt><trkpt lat="59.0729689132" lon="30.0276913494"><ele>75.60</ele><time>2026-04-25T09:04:02Z</time></trkpt><trkpt lat="59.0731606912" lon="30.0278131384"><ele>75.60</ele><time>2026-04-25T09:04:22Z</time></trkpt><trkpt lat="59.0732150897" lon="30.0280169863"><ele>75.60</ele><time>2026-04-25T09:04:43Z</time></trkpt><trkpt lat="59.0732743498" lon="30.0285974331"><ele>75.60</ele><time>2026-04-25T09:05:11Z</time></trkpt><trkpt lat="59.0733114816" lon="30.0289751217"><ele>77.04</ele><time>2026-04-25T09:05:31Z</time></trkpt><trkpt lat="59.0733650420" lon="30.0292715058"><ele>77.04</ele><time>2026-04-25T09:05:47Z</time></trkpt><trkpt lat="59.0734134056" lon="30.0296429079"><ele>77.04</ele><time>2026-04-25T09:06:07Z</time></trkpt><trkpt lat="59.0734678041" lon="30.0299375318"><ele>77.04</ele><time>2026-04-25T09:06:28Z</time></trkpt><trkpt lat="59.0734997392" lon="30.0303495023"><ele>77.04</ele><time>2026-04-25T09:06:47Z</time></trkpt><trkpt lat="59.0735121444" lon="30.0306809228"><ele>76.08</ele><time>2026-04-25T09:07:05Z</time></trkpt><trkpt lat="59.0735496953" lon="30.0309596211"><ele>76.08</ele><time>2026-04-25T09:07:23Z</time></trkpt><trkpt lat="59.0735729132" lon="30.0312187895"><ele>76.08</ele><time>2026-04-25T09:07:39Z</time></trkpt><trkpt lat="59.0736371186" lon="30.0315060373"><ele>76.08</ele><time>2026-04-25T09:07:56Z</time></trkpt><trkpt lat="59.0736892540" lon="30.0318014994"><ele>76.08</ele><time>2026-04-25T09:08:14Z</time></trkpt><trkpt lat="59.0737127233" lon="30.0321459956"><ele>76.08</ele><time>2026-04-25T09:08:33Z</time></trkpt><trkpt lat="59.0737511963" lon="30.0324476603"><ele>75.60</ele><time>2026-04-25T09:08:52Z</time></trkpt><trkpt lat="59.0738012362" lon="30.0328714494"><ele>75.60</ele><time>2026-04-25T09:09:15Z</time></trkpt><trkpt lat="59.0738662798" lon="30.0331980083"><ele>75.60</ele><time>2026-04-25T09:09:36Z</time></trkpt><trkpt lat="59.0738981310" lon="30.0336021837"><ele>76.56</ele><time>2026-04-25T09:09:56Z</time></trkpt><trkpt lat="59.0739485901" lon="30.0339253061"><ele>76.56</ele><time>2026-04-25T09:10:16Z</time></trkpt><trkpt lat="59.0739790164" lon="30.0342865661"><ele>76.56</ele><time>2026-04-25T09:10:34Z</time></trkpt><trkpt lat="59.0740612429" lon="30.0349708647"><ele>76.08</ele><time>2026-04-25T09:11:08Z</time></trkpt><trkpt lat="59.0740892384" lon="30.0354020298"><ele>74.64</ele><time>2026-04-25T09:11:31Z</time></trkpt><trkpt lat="59.0741843730" lon="30.0358626153"><ele>74.16</ele><time>2026-04-25T09:12:05Z</time></trkpt><trkpt lat="59.0741749015" lon="30.0360899325"><ele>73.68</ele><time>2026-04-25T09:12:29Z</time></trkpt><trkpt lat="59.0742095187" lon="30.0362875778"><ele>73.68</ele><time>2026-04-25T09:12:49Z</time></trkpt><trkpt lat="59.0742691979" lon="30.0365161523"><ele>73.68</ele><time>2026-04-25T09:13:07Z</time></trkpt><trkpt lat="59.0743130352" lon="30.0367462356"><ele>73.68</ele><time>2026-04-25T09:13:22Z</time></trkpt><trkpt lat="59.0743591357" lon="30.0370596349"><ele>72.72</ele><time>2026-04-25T09:14:02Z</time></trkpt><trkpt lat="59.0743743069" lon="30.0373577792"><ele>72.72</ele><time>2026-04-25T09:14:23Z</time></trkpt><trkpt lat="59.0744371712" lon="30.0376264192"><ele>72.24</ele><time>2026-04-25T09:14:43Z</time></trkpt><trkpt lat="59.0744556952" lon="30.0377820712"><ele>72.24</ele><time>2026-04-25T09:15:01Z</time></trkpt><trkpt lat="59.0745384246" lon="30.0377488788"><ele>72.24</ele><time>2026-04-25T09:15:33Z</time></trkpt><trkpt lat="59.0747299511" lon="30.0376114156"><ele>72.24</ele><time>2026-04-25T09:16:04Z</time></trkpt><trkpt lat="59.0748037118" lon="30.0374678336"><ele>72.24</ele><time>2026-04-25T09:16:22Z</time></trkpt><trkpt lat="59.0749550052" lon="30.0373748783"><ele>72.24</ele><time>2026-04-25T09:16:44Z</time></trkpt><trkpt lat="59.0751068015" lon="30.0372549333"><ele>71.76</ele><time>2026-04-25T09:17:05Z</time></trkpt><trkpt lat="59.0752568375" lon="30.0372105930"><ele>71.76</ele><time>2026-04-25T09:17:29Z</time></trkpt><trkpt lat="59.0754228830" lon="30.0370618980"><ele>71.76</ele><time>2026-04-25T09:17:50Z</time></trkpt><trkpt lat="59.0755299199" lon="30.0368808489"><ele>71.76</ele><time>2026-04-25T09:18:09Z</time></trkpt><trkpt lat="59.0756247193" lon="30.0367597304"><ele>71.76</ele><time>2026-04-25T09:18:25Z</time></trkpt><trkpt lat="59.0758075286" lon="30.0365070999"><ele>71.76</ele><time>2026-04-25T09:18:59Z</time></trkpt><trkpt lat="59.0759298205" lon="30.0364008173"><ele>71.76</ele><time>2026-04-25T09:19:21Z</time></trkpt><trkpt lat="59.0760395397" lon="30.0362299941"><ele>71.76</ele><time>2026-04-25T09:19:42Z</time></trkpt><trkpt lat="59.0761092771" lon="30.0361037627"><ele>71.27</ele><time>2026-04-25T09:19:58Z</time></trkpt><trkpt lat="59.0761376917" lon="30.0360630266"><ele>71.27</ele><time>2026-04-25T09:20:41Z</time></trkpt><trkpt lat="59.0762101952" lon="30.0361152459"><ele>71.27</ele><time>2026-04-25T09:21:08Z</time></trkpt><trkpt lat="59.0761521086" lon="30.0360221229"><ele>71.27</ele><time>2026-04-25T09:21:43Z</time></trkpt><trkpt lat="59.0761276335" lon="30.0361310039"><ele>72.72</ele><time>2026-04-25T09:22:21Z</time></trkpt><trkpt lat="59.0761153959" lon="30.0361745059"><ele>72.24</ele><time>2026-04-25T09:23:08Z</time></trkpt><trkpt lat="59.0761635080" lon="30.0360828917"><ele>72.24</ele><time>2026-04-25T09:23:22Z</time></trkpt><trkpt lat="59.0762697067" lon="30.0359356217"><ele>72.24</ele><time>2026-04-25T09:23:37Z</time></trkpt><trkpt lat="59.0763083473" lon="30.0358777866"><ele>72.24</ele><time>2026-04-25T09:23:46Z</time></trkpt><trkpt lat="59.0763723012" lon="30.0358481146"><ele>72.24</ele><time>2026-04-25T09:23:55Z</time></trkpt><trkpt lat="59.0764494985" lon="30.0357496273"><ele>72.24</ele><time>2026-04-25T09:24:08Z</time></trkpt><trkpt lat="59.0765197389" lon="30.0355632138"><ele>72.24</ele><time>2026-04-25T09:24:24Z</time></trkpt><trkpt lat="59.0766052343" lon="30.0354825798"><ele>72.24</ele><time>2026-04-25T09:24:38Z</time></trkpt><trkpt lat="59.0766851138" lon="30.0354541652"><ele>72.24</ele><time>2026-04-25T09:24:49Z</time></trkpt><trkpt lat="59.0768006165" lon="30.0354708452"><ele>72.24</ele><time>2026-04-25T09:25:04Z</time></trkpt><trkpt lat="59.0768514108" lon="30.0356200431"><ele>72.24</ele><time>2026-04-25T09:25:15Z</time></trkpt><trkpt lat="59.0769188851" lon="30.0355734397"><ele>72.24</ele><time>2026-04-25T09:25:25Z</time></trkpt><trkpt lat="59.0769372415" lon="30.0354874413"><ele>72.24</ele><time>2026-04-25T09:25:31Z</time></trkpt><trkpt lat="59.0770130139" lon="30.0353143550"><ele>72.24</ele><time>2026-04-25T09:25:46Z</time></trkpt><trkpt lat="59.0770254191" lon="30.0353081524"><ele>72.24</ele><time>2026-04-25T09:25:48Z</time></trkpt><trkpt lat="59.0771196317" lon="30.0352923945"><ele>72.24</ele><time>2026-04-25T09:25:59Z</time></trkpt><trkpt lat="59.0771840885" lon="30.0352257583"><ele>72.24</ele><time>2026-04-25T09:26:08Z</time></trkpt><trkpt lat="59.0772870183" lon="30.0352008641"><ele>72.24</ele><time>2026-04-25T09:26:22Z</time></trkpt><trkpt lat="59.0773404110" lon="30.0351570267"><ele>72.24</ele><time>2026-04-25T09:26:31Z</time></trkpt><trkpt lat="59.0773965698" lon="30.0350800809"><ele>72.24</ele><time>2026-04-25T09:26:40Z</time></trkpt><trkpt lat="59.0774638765" lon="30.0349560287"><ele>72.24</ele><time>2026-04-25T09:26:51Z</time></trkpt><trkpt lat="59.0775628667" lon="30.0348956790"><ele>72.24</ele><time>2026-04-25T09:27:05Z</time></trkpt><trkpt lat="59.0776350349" lon="30.0347996224"><ele>72.24</ele><time>2026-04-25T09:27:18Z</time></trkpt><trkpt lat="59.0776703227" lon="30.0347093493"><ele>72.24</ele><time>2026-04-25T09:27:31Z</time></trkpt><trkpt lat="59.0776595939" lon="30.0346796773"><ele>72.24</ele><time>2026-04-25T09:27:49Z</time></trkpt><trkpt lat="59.0776491165" lon="30.0347161386"><ele>72.24</ele><time>2026-04-25T09:28:13Z</time></trkpt><trkpt lat="59.0776392259" lon="30.0347610656"><ele>71.76</ele><time>2026-04-25T09:28:35Z</time></trkpt><trkpt lat="59.0776316822" lon="30.0347463135"><ele>71.76</ele><time>2026-04-25T09:29:31Z</time></trkpt><trkpt lat="59.0776201990" lon="30.0346977822"><ele>71.76</ele><time>2026-04-25T09:30:59Z</time></trkpt><trkpt lat="59.0776438359" lon="30.0347434636"><ele>71.76</ele><time>2026-04-25T09:31:40Z</time></trkpt><trkpt lat="59.0777193569" lon="30.0346237700"><ele>71.76</ele><time>2026-04-25T09:31:56Z</time></trkpt><trkpt lat="59.0777829755" lon="30.0344759971"><ele>71.76</ele><time>2026-04-25T09:32:09Z</time></trkpt><trkpt lat="59.0778832231" lon="30.0343342591"><ele>71.76</ele><time>2026-04-25T09:32:22Z</time></trkpt><trkpt lat="59.0779735800" lon="30.0343361031"><ele>71.76</ele><time>2026-04-25T09:32:34Z</time></trkpt><trkpt lat="59.0780825447" lon="30.0343196746"><ele>71.76</ele><time>2026-04-25T09:32:48Z</time></trkpt><trkpt lat="59.0780933574" lon="30.0342164095"><ele>71.76</ele><time>2026-04-25T09:33:01Z</time></trkpt><trkpt lat="59.0780684631" lon="30.0342159066"><ele>72.24</ele><time>2026-04-25T09:33:37Z</time></trkpt><trkpt lat="59.0780971292" lon="30.0342050102"><ele>70.79</ele><time>2026-04-25T09:35:06Z</time></trkpt><trkpt lat="59.0780593269" lon="30.0341752544"><ele>71.27</ele><time>2026-04-25T09:36:09Z</time></trkpt><trkpt lat="59.0781113785" lon="30.0341958739"><ele>71.27</ele><time>2026-04-25T09:36:56Z</time></trkpt><trkpt lat="59.0780917648" lon="30.0341614243"><ele>71.76</ele><time>2026-04-25T09:37:46Z</time></trkpt><trkpt lat="59.0780935250" lon="30.0341087021"><ele>71.76</ele><time>2026-04-25T09:38:22Z</time></trkpt><trkpt lat="59.0780853108" lon="30.0339666288"><ele>71.76</ele><time>2026-04-25T09:38:36Z</time></trkpt><trkpt lat="59.0781259630" lon="30.0337698217"><ele>71.76</ele><time>2026-04-25T09:38:51Z</time></trkpt><trkpt lat="59.0781306569" lon="30.0337451790"><ele>71.76</ele><time>2026-04-25T09:38:53Z</time></trkpt><trkpt lat="59.0781857260" lon="30.0335620344"><ele>72.72</ele><time>2026-04-25T09:39:06Z</time></trkpt><trkpt lat="59.0782536194" lon="30.0334055442"><ele>72.72</ele><time>2026-04-25T09:39:20Z</time></trkpt><trkpt lat="59.0783450659" lon="30.0332998484"><ele>72.72</ele><time>2026-04-25T09:39:34Z</time></trkpt><trkpt lat="59.0783630032" lon="30.0332251657"><ele>72.72</ele><time>2026-04-25T09:39:40Z</time></trkpt><trkpt lat="59.0783842932" lon="30.0331895426"><ele>72.72</ele><time>2026-04-25T09:39:45Z</time></trkpt><trkpt lat="59.0784619097" lon="30.0330934860"><ele>72.72</ele><time>2026-04-25T09:39:58Z</time></trkpt><trkpt lat="59.0785190742" lon="30.0328451302"><ele>72.72</ele><time>2026-04-25T09:40:14Z</time></trkpt><trkpt lat="59.0786101017" lon="30.0327958446"><ele>72.72</ele><time>2026-04-25T09:40:25Z</time></trkpt><trkpt lat="59.0786776599" lon="30.0327547733"><ele>72.72</ele><time>2026-04-25T09:40:37Z</time></trkpt><trkpt lat="59.0787414461" lon="30.0326562021"><ele>72.72</ele><time>2026-04-25T09:40:49Z</time></trkpt><trkpt lat="59.0787903965" lon="30.0324989576"><ele>72.72</ele><time>2026-04-25T09:41:03Z</time></trkpt><trkpt lat="59.0788596310" lon="30.0323912501"><ele>72.72</ele><time>2026-04-25T09:41:14Z</time></trkpt><trkpt lat="59.0789031330" lon="30.0322389510"><ele>72.72</ele><time>2026-04-25T09:41:26Z</time></trkpt><trkpt lat="59.0789441206" lon="30.0320787728"><ele>72.72</ele><time>2026-04-25T09:41:39Z</time></trkpt><trkpt lat="59.0790263470" lon="30.0319600012"><ele>72.72</ele><time>2026-04-25T09:41:52Z</time></trkpt><trkpt lat="59.0790418535" lon="30.0319248810"><ele>72.72</ele><time>2026-04-25T09:42:09Z</time></trkpt><trkpt lat="59.0790239163" lon="30.0318098813"><ele>73.20</ele><time>2026-04-25T09:43:23Z</time></trkpt><trkpt lat="59.0790444519" lon="30.0318378769"><ele>73.68</ele><time>2026-04-25T09:44:36Z</time></trkpt><trkpt lat="59.0790466312" lon="30.0318576582"><ele>74.16</ele><time>2026-04-25T09:45:11Z</time></trkpt><trkpt lat="59.0790243354" lon="30.0318065286"><ele>74.16</ele><time>2026-04-25T09:46:09Z</time></trkpt><trkpt lat="59.0790330525" lon="30.0317645352"><ele>74.16</ele><time>2026-04-25T09:46:46Z</time></trkpt><trkpt lat="59.0790738724" lon="30.0317703187"><ele>74.16</ele><time>2026-04-25T09:46:54Z</time></trkpt><trkpt lat="59.0791111719" lon="30.0317301694"><ele>74.16</ele><time>2026-04-25T09:47:02Z</time></trkpt><trkpt lat="59.0791642293" lon="30.0315860007"><ele>74.16</ele><time>2026-04-25T09:47:16Z</time></trkpt><trkpt lat="59.0792286023" lon="30.0314259902"><ele>74.16</ele><time>2026-04-25T09:47:28Z</time></trkpt><trkpt lat="59.0793182887" lon="30.0313140918"><ele>74.16</ele><time>2026-04-25T09:47:41Z</time></trkpt><trkpt lat="59.0793296881" lon="30.0313034467"><ele>74.16</ele><time>2026-04-25T09:47:43Z</time></trkpt><trkpt lat="59.0793567616" lon="30.0311564282"><ele>74.16</ele><time>2026-04-25T09:47:54Z</time></trkpt><trkpt lat="59.0794024430" lon="30.0309866946"><ele>73.20</ele><time>2026-04-25T09:48:05Z</time></trkpt><trkpt lat="59.0794785507" lon="30.0308875367"><ele>73.20</ele><time>2026-04-25T09:48:18Z</time></trkpt><trkpt lat="59.0795010142" lon="30.0308198947"><ele>73.20</ele><time>2026-04-25T09:48:25Z</time></trkpt><trkpt lat="59.0795482881" lon="30.0306336489"><ele>73.20</ele><time>2026-04-25T09:48:38Z</time></trkpt><trkpt lat="59.0796035249" lon="30.0304588862"><ele>73.20</ele><time>2026-04-25T09:48:52Z</time></trkpt><trkpt lat="59.0796936303" lon="30.0303510111"><ele>73.20</ele><time>2026-04-25T09:49:06Z</time></trkpt><trkpt lat="59.0797353722" lon="30.0301843788"><ele>73.20</ele><time>2026-04-25T09:49:19Z</time></trkpt><trkpt lat="59.0797794610" lon="30.0299775135"><ele>73.20</ele><time>2026-04-25T09:49:34Z</time></trkpt><trkpt lat="59.0798372123" lon="30.0298678782"><ele>73.20</ele><time>2026-04-25T09:49:48Z</time></trkpt><trkpt lat="59.0799186844" lon="30.0297678821"><ele>73.20</ele><time>2026-04-25T09:50:01Z</time></trkpt><trkpt lat="59.0799296647" lon="30.0297481846"><ele>73.20</ele><time>2026-04-25T09:50:03Z</time></trkpt><trkpt lat="59.0799722448" lon="30.0296672992"><ele>73.20</ele><time>2026-04-25T09:50:13Z</time></trkpt><trkpt lat="59.0801648609" lon="30.0291264150"><ele>73.20</ele><time>2026-04-25T09:50:54Z</time></trkpt><trkpt lat="59.0802465007" lon="30.0289460365"><ele>73.20</ele><time>2026-04-25T09:51:11Z</time></trkpt><trkpt lat="59.0803297330" lon="30.0287503190"><ele>73.20</ele><time>2026-04-25T09:51:33Z</time></trkpt><trkpt lat="59.0802827105" lon="30.0287704356"><ele>73.20</ele><time>2026-04-25T09:52:05Z</time></trkpt><trkpt lat="59.0803054255" lon="30.0287836790"><ele>73.20</ele><time>2026-04-25T09:53:01Z</time></trkpt><trkpt lat="59.0803091973" lon="30.0288153626"><ele>73.68</ele><time>2026-04-25T09:54:13Z</time></trkpt><trkpt lat="59.0804093610" lon="30.0287709385"><ele>73.68</ele><time>2026-04-25T09:54:38Z</time></trkpt><trkpt lat="59.0803935193" lon="30.0287948269"><ele>74.64</ele><time>2026-04-25T09:55:03Z</time></trkpt><trkpt lat="59.0804358479" lon="30.0288086571"><ele>75.12</ele><time>2026-04-25T09:55:34Z</time></trkpt><trkpt lat="59.0803833771" lon="30.0288086571"><ele>75.12</ele><time>2026-04-25T09:56:11Z</time></trkpt><trkpt lat="59.0802837163" lon="30.0288750418"><ele>75.12</ele><time>2026-04-25T09:56:24Z</time></trkpt><trkpt lat="59.0802529547" lon="30.0291012693"><ele>75.12</ele><time>2026-04-25T09:56:35Z</time></trkpt><trkpt lat="59.0802310780" lon="30.0291818194"><ele>75.12</ele><time>2026-04-25T09:56:55Z</time></trkpt><trkpt lat="59.0802309103" lon="30.0291964039"><ele>75.60</ele><time>2026-04-25T09:57:31Z</time></trkpt><trkpt lat="59.0802859794" lon="30.0288936496"><ele>75.60</ele><time>2026-04-25T09:57:43Z</time></trkpt><trkpt lat="59.0803169925" lon="30.0286400970"><ele>75.60</ele><time>2026-04-25T09:58:00Z</time></trkpt><trkpt lat="59.0803537052" lon="30.0285337307"><ele>75.60</ele><time>2026-04-25T09:58:12Z</time></trkpt><trkpt lat="59.0804294776" lon="30.0284127798"><ele>76.08</ele><time>2026-04-25T09:58:26Z</time></trkpt><trkpt lat="59.0805333294" lon="30.0283079222"><ele>76.08</ele><time>2026-04-25T09:58:45Z</time></trkpt><trkpt lat="59.0805834532" lon="30.0281844568"><ele>76.08</ele><time>2026-04-25T09:58:57Z</time></trkpt><trkpt lat="59.0806249436" lon="30.0280334987"><ele>76.08</ele><time>2026-04-25T09:59:09Z</time></trkpt><trkpt lat="59.0807071701" lon="30.0279051717"><ele>76.08</ele><time>2026-04-25T09:59:24Z</time></trkpt><trkpt lat="59.0807590540" lon="30.0277533755"><ele>76.08</ele><time>2026-04-25T09:59:37Z</time></trkpt><trkpt lat="59.0807891451" lon="30.0276087038"><ele>76.08</ele><time>2026-04-25T09:59:49Z</time></trkpt><trkpt lat="59.0808069147" lon="30.0274211168"><ele>76.08</ele><time>2026-04-25T10:00:05Z</time></trkpt><trkpt lat="59.0808673482" lon="30.0273190252"><ele>76.08</ele><time>2026-04-25T10:00:16Z</time></trkpt><trkpt lat="59.0808898117" lon="30.0272741821"><ele>76.08</ele><time>2026-04-25T10:00:33Z</time></trkpt><trkpt lat="59.0809093416" lon="30.0271039456"><ele>76.08</ele><time>2026-04-25T10:00:47Z</time></trkpt><trkpt lat="59.0809725411" lon="30.0270611979"><ele>76.08</ele><time>2026-04-25T10:00:57Z</time></trkpt><trkpt lat="59.0810280293" lon="30.0270812307"><ele>76.08</ele><time>2026-04-25T10:01:30Z</time></trkpt><trkpt lat="59.0810779016" lon="30.0269560050"><ele>76.08</ele><time>2026-04-25T10:01:44Z</time></trkpt><trkpt lat="59.0811196435" lon="30.0268921349"><ele>76.08</ele><time>2026-04-25T10:01:53Z</time></trkpt><trkpt lat="59.0811676718" lon="30.0267568510"><ele>76.08</ele><time>2026-04-25T10:02:06Z</time></trkpt><trkpt lat="59.0811510757" lon="30.0266939029"><ele>76.08</ele><time>2026-04-25T10:02:09Z</time></trkpt><trkpt lat="59.0811349824" lon="30.0265721977"><ele>76.08</ele><time>2026-04-25T10:02:17Z</time></trkpt><trkpt lat="59.0811961703" lon="30.0263990276"><ele>76.08</ele><time>2026-04-25T10:02:32Z</time></trkpt><trkpt lat="59.0812564362" lon="30.0262973551"><ele>76.08</ele><time>2026-04-25T10:02:45Z</time></trkpt><trkpt lat="59.0812167898" lon="30.0261094328"><ele>76.56</ele><time>2026-04-25T10:02:59Z</time></trkpt><trkpt lat="59.0812206455" lon="30.0259420462"><ele>76.56</ele><time>2026-04-25T10:03:17Z</time></trkpt><trkpt lat="59.0812464617" lon="30.0258723926"><ele>76.56</ele><time>2026-04-25T10:03:30Z</time></trkpt><trkpt lat="59.0812948253" lon="30.0258407928"><ele>76.56</ele><time>2026-04-25T10:03:45Z</time></trkpt><trkpt lat="59.0813765489" lon="30.0257535372"><ele>76.56</ele><time>2026-04-25T10:03:58Z</time></trkpt><trkpt lat="59.0814140160" lon="30.0256299879"><ele>76.56</ele><time>2026-04-25T10:04:11Z</time></trkpt><trkpt lat="59.0814130101" lon="30.0254643615"><ele>76.56</ele><time>2026-04-25T10:04:24Z</time></trkpt><trkpt lat="59.0814508963" lon="30.0252908561"><ele>76.56</ele><time>2026-04-25T10:04:39Z</time></trkpt><trkpt lat="59.0814918000" lon="30.0251130760"><ele>76.08</ele><time>2026-04-25T10:04:53Z</time></trkpt><trkpt lat="59.0815327875" lon="30.0249078870"><ele>76.56</ele><time>2026-04-25T10:05:06Z</time></trkpt><trkpt lat="59.0815809835" lon="30.0247969944"><ele>76.56</ele><time>2026-04-25T10:05:36Z</time></trkpt><trkpt lat="59.0816418361" lon="30.0246699248"><ele>76.56</ele><time>2026-04-25T10:05:50Z</time></trkpt><trkpt lat="59.0816639643" lon="30.0245646480"><ele>76.56</ele><time>2026-04-25T10:06:04Z</time></trkpt><trkpt lat="59.0817208774" lon="30.0244006980"><ele>76.56</ele><time>2026-04-25T10:06:19Z</time></trkpt><trkpt lat="59.0816824883" lon="30.0242620613"><ele>77.04</ele><time>2026-04-25T10:06:38Z</time></trkpt><trkpt lat="59.0817040298" lon="30.0241065770"><ele>77.04</ele><time>2026-04-25T10:06:56Z</time></trkpt><trkpt lat="59.0816929657" lon="30.0240539387"><ele>77.52</ele><time>2026-04-25T10:07:09Z</time></trkpt><trkpt lat="59.0817245655" lon="30.0240347441"><ele>77.52</ele><time>2026-04-25T10:07:15Z</time></trkpt><trkpt lat="59.0817822330" lon="30.0241707824"><ele>76.56</ele><time>2026-04-25T10:07:37Z</time></trkpt><trkpt lat="59.0817808919" lon="30.0240780786"><ele>76.56</ele><time>2026-04-25T10:08:01Z</time></trkpt><trkpt lat="59.0817217156" lon="30.0239372626"><ele>76.56</ele><time>2026-04-25T10:08:38Z</time></trkpt><trkpt lat="59.0817347914" lon="30.0239362568"><ele>76.56</ele><time>2026-04-25T10:09:07Z</time></trkpt><trkpt lat="59.0817832388" lon="30.0239406992"><ele>77.04</ele><time>2026-04-25T10:09:27Z</time></trkpt><trkpt lat="59.0818093065" lon="30.0239687786"><ele>76.56</ele><time>2026-04-25T10:09:39Z</time></trkpt><trkpt lat="59.0818343684" lon="30.0238945149"><ele>76.56</ele><time>2026-04-25T10:09:54Z</time></trkpt><trkpt lat="59.0818072949" lon="30.0238101929"><ele>76.08</ele><time>2026-04-25T10:10:11Z</time></trkpt><trkpt lat="59.0817825682" lon="30.0237345882"><ele>77.04</ele><time>2026-04-25T10:10:42Z</time></trkpt><trkpt lat="59.0817710012" lon="30.0237591472"><ele>77.04</ele><time>2026-04-25T10:10:48Z</time></trkpt><trkpt lat="59.0817662235" lon="30.0237766653"><ele>77.04</ele><time>2026-04-25T10:10:53Z</time></trkpt><trkpt lat="59.0817463584" lon="30.0237569679"><ele>77.04</ele><time>2026-04-25T10:11:01Z</time></trkpt><trkpt lat="59.0817466099" lon="30.0237821974"><ele>77.52</ele><time>2026-04-25T10:11:12Z</time></trkpt><trkpt lat="59.0817437600" lon="30.0237774197"><ele>77.52</ele><time>2026-04-25T10:11:13Z</time></trkpt><trkpt lat="59.0817263257" lon="30.0237759948"><ele>77.52</ele><time>2026-04-25T10:11:19Z</time></trkpt><trkpt lat="59.0817231406" lon="30.0237614941"><ele>77.52</ele><time>2026-04-25T10:11:21Z</time></trkpt><trkpt lat="59.0817151777" lon="30.0237724744"><ele>77.52</ele><time>2026-04-25T10:11:28Z</time></trkpt><trkpt lat="59.0817009285" lon="30.0237794314"><ele>76.08</ele><time>2026-04-25T10:11:31Z</time></trkpt><trkpt lat="59.0817022696" lon="30.0237856340"><ele>76.08</ele><time>2026-04-25T10:11:33Z</time></trkpt><trkpt lat="59.0817047842" lon="30.0237730611"><ele>76.08</ele><time>2026-04-25T10:11:35Z</time></trkpt><trkpt lat="59.0817018505" lon="30.0238256995"><ele>76.08</ele><time>2026-04-25T10:11:47Z</time></trkpt><trkpt lat="59.0816982463" lon="30.0238312315"><ele>76.56</ele><time>2026-04-25T10:12:19Z</time></trkpt><trkpt lat="59.0817077179" lon="30.0238121208"><ele>76.56</ele><time>2026-04-25T10:12:35Z</time></trkpt><trkpt lat="59.0816773754" lon="30.0238270406"><ele>77.04</ele><time>2026-04-25T10:13:25Z</time></trkpt><trkpt lat="59.0816864278" lon="30.0236886553"><ele>77.04</ele><time>2026-04-25T10:13:46Z</time></trkpt><trkpt lat="59.0817076340" lon="30.0236597378"><ele>77.04</ele><time>2026-04-25T10:14:09Z</time></trkpt><trkpt lat="59.0816823207" lon="30.0235842168"><ele>78.00</ele><time>2026-04-25T10:14:33Z</time></trkpt><trkpt lat="59.0816891100" lon="30.0236732326"><ele>78.00</ele><time>2026-04-25T10:14:56Z</time></trkpt><trkpt lat="59.0818028525" lon="30.0237487536"><ele>78.48</ele><time>2026-04-25T10:15:18Z</time></trkpt><trkpt lat="59.0818507969" lon="30.0237770006"><ele>78.97</ele><time>2026-04-25T10:16:02Z</time></trkpt><trkpt lat="59.0818439238" lon="30.0236648507"><ele>78.97</ele><time>2026-04-25T10:16:25Z</time></trkpt><trkpt lat="59.0818434209" lon="30.0236738194"><ele>78.97</ele><time>2026-04-25T10:16:31Z</time></trkpt><trkpt lat="59.0818381403" lon="30.0236721430"><ele>78.97</ele><time>2026-04-25T10:16:37Z</time></trkpt><trkpt lat="59.0818358772" lon="30.0236522779"><ele>78.97</ele><time>2026-04-25T10:16:47Z</time></trkpt><trkpt lat="59.0817840770" lon="30.0237566326"><ele>79.45</ele><time>2026-04-25T10:17:05Z</time></trkpt><trkpt lat="59.0817791317" lon="30.0238125399"><ele>78.97</ele><time>2026-04-25T10:17:20Z</time></trkpt><trkpt lat="59.0817512199" lon="30.0237262901"><ele>78.97</ele><time>2026-04-25T10:17:40Z</time></trkpt><trkpt lat="59.0817031078" lon="30.0237799343"><ele>78.97</ele><time>2026-04-25T10:17:56Z</time></trkpt><trkpt lat="59.0816560853" lon="30.0237510167"><ele>79.45</ele><time>2026-04-25T10:18:10Z</time></trkpt><trkpt lat="59.0816363040" lon="30.0237685349"><ele>79.45</ele><time>2026-04-25T10:18:20Z</time></trkpt><trkpt lat="59.0816026926" lon="30.0237562135"><ele>79.45</ele><time>2026-04-25T10:18:30Z</time></trkpt><trkpt lat="59.0816046204" lon="30.0237581413"><ele>79.45</ele><time>2026-04-25T10:18:32Z</time></trkpt><trkpt lat="59.0815956518" lon="30.0238092709"><ele>79.45</ele><time>2026-04-25T10:18:40Z</time></trkpt><trkpt lat="59.0815389063" lon="30.0238626637"><ele>79.45</ele><time>2026-04-25T10:18:48Z</time></trkpt><trkpt lat="59.0815023612" lon="30.0238541141"><ele>79.93</ele><time>2026-04-25T10:19:02Z</time></trkpt><trkpt lat="59.0814820770" lon="30.0239416212"><ele>79.93</ele><time>2026-04-25T10:19:17Z</time></trkpt><trkpt lat="59.0814577695" lon="30.0239883084"><ele>79.93</ele><time>2026-04-25T10:19:29Z</time></trkpt><trkpt lat="59.0814174525" lon="30.0239416212"><ele>79.93</ele><time>2026-04-25T10:19:42Z</time></trkpt><trkpt lat="59.0813933965" lon="30.0239581335"><ele>79.93</ele><time>2026-04-25T10:20:03Z</time></trkpt><trkpt lat="59.0813449491" lon="30.0239019748"><ele>79.93</ele><time>2026-04-25T10:20:23Z</time></trkpt><trkpt lat="59.0813045483" lon="30.0237575546"><ele>79.93</ele><time>2026-04-25T10:20:43Z</time></trkpt><trkpt lat="59.0812977590" lon="30.0238214247"><ele>80.41</ele><time>2026-04-25T10:20:52Z</time></trkpt><trkpt lat="59.0812772233" lon="30.0239267014"><ele>80.41</ele><time>2026-04-25T10:21:02Z</time></trkpt><trkpt lat="59.0812634770" lon="30.0239416212"><ele>80.41</ele><time>2026-04-25T10:21:08Z</time></trkpt><trkpt lat="59.0812291112" lon="30.0240110233"><ele>80.41</ele><time>2026-04-25T10:21:14Z</time></trkpt><trkpt lat="59.0812524967" lon="30.0240060780"><ele>80.41</ele><time>2026-04-25T10:21:22Z</time></trkpt><trkpt lat="59.0812148619" lon="30.0239787530"><ele>80.41</ele><time>2026-04-25T10:21:37Z</time></trkpt><trkpt lat="59.0812087432" lon="30.0241615623"><ele>80.41</ele><time>2026-04-25T10:21:53Z</time></trkpt><trkpt lat="59.0811880399" lon="30.0241710339"><ele>80.41</ele><time>2026-04-25T10:22:02Z</time></trkpt><trkpt lat="59.0811789874" lon="30.0241578743"><ele>80.41</ele><time>2026-04-25T10:22:10Z</time></trkpt><trkpt lat="59.0811481420" lon="30.0241948385"><ele>80.41</ele><time>2026-04-25T10:22:37Z</time></trkpt><trkpt lat="59.0811873693" lon="30.0242848601"><ele>80.41</ele><time>2026-04-25T10:23:20Z</time></trkpt><trkpt lat="59.0811314620" lon="30.0242612232"><ele>80.41</ele><time>2026-04-25T10:23:34Z</time></trkpt><trkpt lat="59.0811266005" lon="30.0243069045"><ele>80.41</ele><time>2026-04-25T10:23:41Z</time></trkpt><trkpt lat="59.0810989402" lon="30.0243396778"><ele>80.41</ele><time>2026-04-25T10:24:00Z</time></trkpt><trkpt lat="59.0810546838" lon="30.0244481396"><ele>80.89</ele><time>2026-04-25T10:24:23Z</time></trkpt><trkpt lat="59.0810131934" lon="30.0244686753"><ele>80.89</ele><time>2026-04-25T10:24:39Z</time></trkpt><trkpt lat="59.0809663385" lon="30.0246003550"><ele>80.89</ele><time>2026-04-25T10:24:55Z</time></trkpt><trkpt lat="59.0808827709" lon="30.0246088207"><ele>80.89</ele><time>2026-04-25T10:25:14Z</time></trkpt><trkpt lat="59.0808147937" lon="30.0247585215"><ele>80.89</ele><time>2026-04-25T10:25:33Z</time></trkpt><trkpt lat="59.0807920787" lon="30.0248676538"><ele>80.89</ele><time>2026-04-25T10:25:53Z</time></trkpt><trkpt lat="59.0807817690" lon="30.0249849167"><ele>80.89</ele><time>2026-04-25T10:26:12Z</time></trkpt><trkpt lat="59.0807586350" lon="30.0250273291"><ele>80.89</ele><time>2026-04-25T10:26:34Z</time></trkpt><trkpt lat="59.0806968603" lon="30.0250941329"><ele>80.89</ele><time>2026-04-25T10:26:55Z</time></trkpt><trkpt lat="59.0807002969" lon="30.0253084581"><ele>80.89</ele><time>2026-04-25T10:27:12Z</time></trkpt><trkpt lat="59.0806965251" lon="30.0254926924"><ele>80.89</ele><time>2026-04-25T10:27:26Z</time></trkpt><trkpt lat="59.0806325711" lon="30.0255816244"><ele>80.89</ele><time>2026-04-25T10:27:42Z</time></trkpt><trkpt lat="59.0805660188" lon="30.0256820396"><ele>80.89</ele><time>2026-04-25T10:27:57Z</time></trkpt><trkpt lat="59.0804720577" lon="30.0257707201"><ele>80.41</ele><time>2026-04-25T10:28:35Z</time></trkpt><trkpt lat="59.0803984646" lon="30.0259275455"><ele>80.41</ele><time>2026-04-25T10:28:59Z</time></trkpt><trkpt lat="59.0803995542" lon="30.0259421300"><ele>80.41</ele><time>2026-04-25T10:29:04Z</time></trkpt><trkpt lat="59.0803912561" lon="30.0259163138"><ele>80.41</ele><time>2026-04-25T10:29:09Z</time></trkpt><trkpt lat="59.0804203413" lon="30.0259544514"><ele>80.89</ele><time>2026-04-25T10:29:24Z</time></trkpt><trkpt lat="59.0804344229" lon="30.0260224286"><ele>80.41</ele><time>2026-04-25T10:30:48Z</time></trkpt><trkpt lat="59.0803656075" lon="30.0262007117"><ele>80.41</ele><time>2026-04-25T10:31:18Z</time></trkpt><trkpt lat="59.0801922698" lon="30.0264048111"><ele>80.41</ele><time>2026-04-25T10:31:49Z</time></trkpt><trkpt lat="59.0800961293" lon="30.0265462976"><ele>79.93</ele><time>2026-04-25T10:32:10Z</time></trkpt><trkpt lat="59.0800016653" lon="30.0266778935"><ele>79.93</ele><time>2026-04-25T10:32:26Z</time></trkpt><trkpt lat="59.0799634438" lon="30.0267510675"><ele>79.93</ele><time>2026-04-25T10:32:45Z</time></trkpt><trkpt lat="59.0799947921" lon="30.0268448610"><ele>79.93</ele><time>2026-04-25T10:33:08Z</time></trkpt><trkpt lat="59.0800452512" lon="30.0270027760"><ele>79.93</ele><time>2026-04-25T10:33:31Z</time></trkpt><trkpt lat="59.0799535532" lon="30.0272546522"><ele>79.93</ele><time>2026-04-25T10:34:00Z</time></trkpt><trkpt lat="59.0799186006" lon="30.0273502897"><ele>79.93</ele><time>2026-04-25T10:34:18Z</time></trkpt><trkpt lat="59.0798326861" lon="30.0274372101"><ele>79.45</ele><time>2026-04-25T10:34:46Z</time></trkpt><trkpt lat="59.0797621105" lon="30.0275113061"><ele>79.45</ele><time>2026-04-25T10:35:41Z</time></trkpt><trkpt lat="59.0797305945" lon="30.0275919400"><ele>79.45</ele><time>2026-04-25T10:35:56Z</time></trkpt><trkpt lat="59.0796514694" lon="30.0278265495"><ele>79.45</ele><time>2026-04-25T10:36:16Z</time></trkpt><trkpt lat="59.0795430075" lon="30.0279568043"><ele>79.45</ele><time>2026-04-25T10:36:38Z</time></trkpt><trkpt lat="59.0795584302" lon="30.0282441359"><ele>79.93</ele><time>2026-04-25T10:37:02Z</time></trkpt><trkpt lat="59.0795504674" lon="30.0282785017"><ele>79.45</ele><time>2026-04-25T10:37:40Z</time></trkpt><trkpt lat="59.0796010103" lon="30.0283041503"><ele>79.45</ele><time>2026-04-25T10:38:12Z</time></trkpt><trkpt lat="59.0795884375" lon="30.0283413660"><ele>79.45</ele><time>2026-04-25T10:38:36Z</time></trkpt><trkpt lat="59.0795953944" lon="30.0283243507"><ele>79.45</ele><time>2026-04-25T10:39:04Z</time></trkpt><trkpt lat="59.0796438418" lon="30.0282171462"><ele>79.45</ele><time>2026-04-25T10:39:38Z</time></trkpt><trkpt lat="59.0796418302" lon="30.0280824490"><ele>79.45</ele><time>2026-04-25T10:39:59Z</time></trkpt><trkpt lat="59.0795732662" lon="30.0281648431"><ele>79.45</ele><time>2026-04-25T10:40:25Z</time></trkpt><trkpt lat="59.0795363858" lon="30.0282308925"><ele>79.45</ele><time>2026-04-25T10:40:51Z</time></trkpt><trkpt lat="59.0795493778" lon="30.0282103568"><ele>79.45</ele><time>2026-04-25T10:41:16Z</time></trkpt><trkpt lat="59.0795021877" lon="30.0283150468"><ele>79.45</ele><time>2026-04-25T10:41:53Z</time></trkpt><trkpt lat="59.0795285907" lon="30.0282510929"><ele>79.45</ele><time>2026-04-25T10:42:18Z</time></trkpt><trkpt lat="59.0795745235" lon="30.0282646716"><ele>78.97</ele><time>2026-04-25T10:42:49Z</time></trkpt><trkpt lat="59.0795417503" lon="30.0283241831"><ele>79.93</ele><time>2026-04-25T10:43:32Z</time></trkpt><trkpt lat="59.0795102343" lon="30.0283921603"><ele>79.45</ele><time>2026-04-25T10:43:44Z</time></trkpt><trkpt lat="59.0794862621" lon="30.0284527615"><ele>79.45</ele><time>2026-04-25T10:43:52Z</time></trkpt><trkpt lat="59.0794705041" lon="30.0285478123"><ele>79.45</ele><time>2026-04-25T10:44:03Z</time></trkpt><trkpt lat="59.0794571768" lon="30.0286002830"><ele>79.45</ele><time>2026-04-25T10:44:09Z</time></trkpt><trkpt lat="59.0794450231" lon="30.0287131034"><ele>79.45</ele><time>2026-04-25T10:44:20Z</time></trkpt><trkpt lat="59.0794196259" lon="30.0287116785"><ele>79.45</ele><time>2026-04-25T10:44:49Z</time></trkpt><trkpt lat="59.0794067178" lon="30.0287601259"><ele>79.45</ele><time>2026-04-25T10:45:17Z</time></trkpt><trkpt lat="59.0793788061" lon="30.0288715214"><ele>79.45</ele><time>2026-04-25T10:45:30Z</time></trkpt><trkpt lat="59.0793740284" lon="30.0289108325"><ele>79.45</ele><time>2026-04-25T10:45:36Z</time></trkpt><trkpt lat="59.0793322027" lon="30.0289637223"><ele>79.45</ele><time>2026-04-25T10:45:45Z</time></trkpt><trkpt lat="59.0792886168" lon="30.0290213898"><ele>79.45</ele><time>2026-04-25T10:45:55Z</time></trkpt><trkpt lat="59.0792302787" lon="30.0291441847"><ele>79.93</ele><time>2026-04-25T10:46:08Z</time></trkpt><trkpt lat="59.0791954938" lon="30.0292136706"><ele>79.93</ele><time>2026-04-25T10:46:17Z</time></trkpt><trkpt lat="59.0791443642" lon="30.0292750262"><ele>79.45</ele><time>2026-04-25T10:46:29Z</time></trkpt><trkpt lat="59.0790816676" lon="30.0293489546"><ele>79.45</ele><time>2026-04-25T10:46:41Z</time></trkpt><trkpt lat="59.0790463798" lon="30.0294225477"><ele>79.45</ele><time>2026-04-25T10:46:52Z</time></trkpt><trkpt lat="59.0790470503" lon="30.0295150839"><ele>79.45</ele><time>2026-04-25T10:47:03Z</time></trkpt><trkpt lat="59.0790196415" lon="30.0296076201"><ele>79.45</ele><time>2026-04-25T10:47:14Z</time></trkpt><trkpt lat="59.0790045541" lon="30.0296743400"><ele>79.45</ele><time>2026-04-25T10:47:22Z</time></trkpt><trkpt lat="59.0789443720" lon="30.0297537167"><ele>79.45</ele><time>2026-04-25T10:47:33Z</time></trkpt><trkpt lat="59.0789229143" lon="30.0298298243"><ele>79.45</ele><time>2026-04-25T10:47:42Z</time></trkpt><trkpt lat="59.0788898058" lon="30.0298952032"><ele>79.45</ele><time>2026-04-25T10:47:53Z</time></trkpt><trkpt lat="59.0788490698" lon="30.0299554691"><ele>79.45</ele><time>2026-04-25T10:48:01Z</time></trkpt><trkpt lat="59.0788279474" lon="30.0300883222"><ele>78.97</ele><time>2026-04-25T10:48:11Z</time></trkpt><trkpt lat="59.0787823498" lon="30.0301457383"><ele>78.97</ele><time>2026-04-25T10:48:35Z</time></trkpt><trkpt lat="59.0787585452" lon="30.0301984604"><ele>79.45</ele><time>2026-04-25T10:48:46Z</time></trkpt><trkpt lat="59.0787281189" lon="30.0303311460"><ele>79.45</ele><time>2026-04-25T10:49:06Z</time></trkpt><trkpt lat="59.0787040628" lon="30.0305204932"><ele>79.45</ele><time>2026-04-25T10:49:21Z</time></trkpt><trkpt lat="59.0786629915" lon="30.0306091737"><ele>79.45</ele><time>2026-04-25T10:49:34Z</time></trkpt><trkpt lat="59.0786163043" lon="30.0307178870"><ele>79.45</ele><time>2026-04-25T10:49:46Z</time></trkpt><trkpt lat="59.0785899851" lon="30.0308146980"><ele>79.45</ele><time>2026-04-25T10:49:58Z</time></trkpt><trkpt lat="59.0785907395" lon="30.0308063999"><ele>78.97</ele><time>2026-04-25T10:50:28Z</time></trkpt><trkpt lat="59.0785765741" lon="30.0308244210"><ele>78.97</ele><time>2026-04-25T10:50:47Z</time></trkpt><trkpt lat="59.0785997920" lon="30.0307743810"><ele>79.45</ele><time>2026-04-25T10:51:41Z</time></trkpt><trkpt lat="59.0786168072" lon="30.0308156200"><ele>79.45</ele><time>2026-04-25T10:53:30Z</time></trkpt><trkpt lat="59.0786062460" lon="30.0308038853"><ele>79.93</ele><time>2026-04-25T10:53:55Z</time></trkpt><trkpt lat="59.0785889793" lon="30.0308230799"><ele>80.89</ele><time>2026-04-25T10:54:14Z</time></trkpt><trkpt lat="59.0786046535" lon="30.0308027957"><ele>80.89</ele><time>2026-04-25T10:54:33Z</time></trkpt><trkpt lat="59.0785914939" lon="30.0307882950"><ele>80.89</ele><time>2026-04-25T10:54:53Z</time></trkpt><trkpt lat="59.0785844531" lon="30.0308406819"><ele>79.45</ele><time>2026-04-25T10:55:08Z</time></trkpt><trkpt lat="59.0785852913" lon="30.0308500696"><ele>79.45</ele><time>2026-04-25T10:55:09Z</time></trkpt><trkpt lat="59.0786025580" lon="30.0309055578"><ele>79.45</ele><time>2026-04-25T10:55:18Z</time></trkpt><trkpt lat="59.0785616543" lon="30.0309748761"><ele>79.45</ele><time>2026-04-25T10:55:25Z</time></trkpt><trkpt lat="59.0785068367" lon="30.0310701784"><ele>79.45</ele><time>2026-04-25T10:55:36Z</time></trkpt><trkpt lat="59.0784877259" lon="30.0311677437"><ele>79.45</ele><time>2026-04-25T10:55:43Z</time></trkpt><trkpt lat="59.0785010532" lon="30.0311984215"><ele>79.45</ele><time>2026-04-25T10:55:45Z</time></trkpt><trkpt lat="59.0784473252" lon="30.0313361362"><ele>79.45</ele><time>2026-04-25T10:55:53Z</time></trkpt><trkpt lat="59.0784010570" lon="30.0313817337"><ele>79.45</ele><time>2026-04-25T10:55:59Z</time></trkpt><trkpt lat="59.0783519391" lon="30.0314342882"><ele>79.45</ele><time>2026-04-25T10:56:05Z</time></trkpt><trkpt lat="59.0783074312" lon="30.0314894412"><ele>79.45</ele><time>2026-04-25T10:56:11Z</time></trkpt><trkpt lat="59.0782741550" lon="30.0315339491"><ele>79.45</ele><time>2026-04-25T10:56:18Z</time></trkpt><trkpt lat="59.0781984664" lon="30.0315846596"><ele>79.45</ele><time>2026-04-25T10:56:29Z</time></trkpt><trkpt lat="59.0781635139" lon="30.0316486135"><ele>78.97</ele><time>2026-04-25T10:56:38Z</time></trkpt><trkpt lat="59.0781389549" lon="30.0316850748"><ele>78.97</ele><time>2026-04-25T10:56:43Z</time></trkpt><trkpt lat="59.0781381167" lon="30.0317126513"><ele>78.97</ele><time>2026-04-25T10:56:50Z</time></trkpt><trkpt lat="59.0781418048" lon="30.0317564048"><ele>78.97</ele><time>2026-04-25T10:57:03Z</time></trkpt><trkpt lat="59.0781475045" lon="30.0317656249"><ele>78.97</ele><time>2026-04-25T10:57:21Z</time></trkpt><trkpt lat="59.0781441517" lon="30.0317784492"><ele>78.97</ele><time>2026-04-25T10:57:40Z</time></trkpt><trkpt lat="59.0781185031" lon="30.0318280701"><ele>78.97</ele><time>2026-04-25T10:57:56Z</time></trkpt><trkpt lat="59.0780619252" lon="30.0318336021"><ele>78.97</ele><time>2026-04-25T10:58:06Z</time></trkpt><trkpt lat="59.0779584087" lon="30.0318872463"><ele>78.97</ele><time>2026-04-25T10:58:21Z</time></trkpt><trkpt lat="59.0779221989" lon="30.0319662038"><ele>78.97</ele><time>2026-04-25T10:58:29Z</time></trkpt><trkpt lat="59.0779076982" lon="30.0320408028"><ele>78.97</ele><time>2026-04-25T10:58:33Z</time></trkpt><trkpt lat="59.0778780263" lon="30.0320988055"><ele>78.97</ele><time>2026-04-25T10:58:38Z</time></trkpt><trkpt lat="59.0779067762" lon="30.0322177447"><ele>78.48</ele><time>2026-04-25T10:58:46Z</time></trkpt><trkpt lat="59.0778731648" lon="30.0323817786"><ele>78.48</ele><time>2026-04-25T10:59:01Z</time></trkpt><trkpt lat="59.0777730010" lon="30.0324387755"><ele>78.48</ele><time>2026-04-25T10:59:25Z</time></trkpt><trkpt lat="59.0777167585" lon="30.0325546972"><ele>78.48</ele><time>2026-04-25T10:59:40Z</time></trkpt><trkpt lat="59.0776466019" lon="30.0326900650"><ele>78.48</ele><time>2026-04-25T10:59:55Z</time></trkpt><trkpt lat="59.0775386430" lon="30.0329512451"><ele>78.48</ele><time>2026-04-25T11:00:14Z</time></trkpt><trkpt lat="59.0774617810" lon="30.0330970064"><ele>79.45</ele><time>2026-04-25T11:00:28Z</time></trkpt><trkpt lat="59.0773974080" lon="30.0331766345"><ele>79.45</ele><time>2026-04-25T11:00:40Z</time></trkpt><trkpt lat="59.0773844160" lon="30.0331832562"><ele>79.45</ele><time>2026-04-25T11:00:45Z</time></trkpt><trkpt lat="59.0773438476" lon="30.0332686678"><ele>78.97</ele><time>2026-04-25T11:00:56Z</time></trkpt><trkpt lat="59.0773053747" lon="30.0333451107"><ele>78.97</ele><time>2026-04-25T11:01:05Z</time></trkpt><trkpt lat="59.0772663150" lon="30.0334252417"><ele>78.97</ele><time>2026-04-25T11:01:12Z</time></trkpt><trkpt lat="59.0772565920" lon="30.0334433466"><ele>78.97</ele><time>2026-04-25T11:01:13Z</time></trkpt><trkpt lat="59.0771862678" lon="30.0335618667"><ele>79.45</ele><time>2026-04-25T11:01:26Z</time></trkpt><trkpt lat="59.0771130100" lon="30.0337118190"><ele>79.45</ele><time>2026-04-25T11:01:30Z</time></trkpt><trkpt lat="59.0771000180" lon="30.0337389763"><ele>79.45</ele><time>2026-04-25T11:01:36Z</time></trkpt><trkpt lat="59.0770660713" lon="30.0338296685"><ele>79.45</ele><time>2026-04-25T11:01:45Z</time></trkpt><trkpt lat="59.0770146903" lon="30.0339401420"><ele>79.45</ele><time>2026-04-25T11:01:50Z</time></trkpt><trkpt lat="59.0769695118" lon="30.0339383818"><ele>79.45</ele><time>2026-04-25T11:01:59Z</time></trkpt><trkpt lat="59.0769281890" lon="30.0340895914"><ele>79.45</ele><time>2026-04-25T11:02:01Z</time></trkpt><trkpt lat="59.0769528318" lon="30.0340165012"><ele>79.45</ele><time>2026-04-25T11:02:06Z</time></trkpt><trkpt lat="59.0769418515" lon="30.0340561476"><ele>79.45</ele><time>2026-04-25T11:02:13Z</time></trkpt><trkpt lat="59.0769104194" lon="30.0340926088"><ele>79.45</ele><time>2026-04-25T11:02:20Z</time></trkpt><trkpt lat="59.0769623034" lon="30.0339657906"><ele>79.45</ele><time>2026-04-25T11:02:25Z</time></trkpt><trkpt lat="59.0768846869" lon="30.0341309141"><ele>78.97</ele><time>2026-04-25T11:03:13Z</time></trkpt><trkpt lat="59.0768962540" lon="30.0341618434"><ele>78.97</ele><time>2026-04-25T11:03:46Z</time></trkpt><trkpt lat="59.0768934041" lon="30.0341469236"><ele>78.97</ele><time>2026-04-25T11:04:21Z</time></trkpt><trkpt lat="59.0769005287" lon="30.0341579039"><ele>78.97</ele><time>2026-04-25T11:04:49Z</time></trkpt><trkpt lat="59.0768876206" lon="30.0341501925"><ele>79.45</ele><time>2026-04-25T11:06:19Z</time></trkpt><trkpt lat="59.0769072343" lon="30.0341431517"><ele>78.97</ele><time>2026-04-25T11:06:50Z</time></trkpt><trkpt lat="59.0769037139" lon="30.0341583230"><ele>78.97</ele><time>2026-04-25T11:07:28Z</time></trkpt><trkpt lat="59.0769190527" lon="30.0341372844"><ele>78.97</ele><time>2026-04-25T11:08:09Z</time></trkpt><trkpt lat="59.0768875368" lon="30.0341580715"><ele>78.97</ele><time>2026-04-25T11:08:28Z</time></trkpt><trkpt lat="59.0768918116" lon="30.0341726560"><ele>78.97</ele><time>2026-04-25T11:09:04Z</time></trkpt><trkpt lat="59.0768524166" lon="30.0340563990"><ele>79.45</ele><time>2026-04-25T11:10:02Z</time></trkpt><trkpt lat="59.0768089984" lon="30.0339236297"><ele>79.45</ele><time>2026-04-25T11:10:14Z</time></trkpt><trkpt lat="59.0768001974" lon="30.0338696502"><ele>78.97</ele><time>2026-04-25T11:10:17Z</time></trkpt><trkpt lat="59.0767716151" lon="30.0336230546"><ele>78.97</ele><time>2026-04-25T11:10:32Z</time></trkpt><trkpt lat="59.0767455474" lon="30.0334284268"><ele>78.97</ele><time>2026-04-25T11:10:47Z</time></trkpt><trkpt lat="59.0767437872" lon="30.0332766306"><ele>78.97</ele><time>2026-04-25T11:11:00Z</time></trkpt><trkpt lat="59.0767386742" lon="30.0330915581"><ele>78.97</ele><time>2026-04-25T11:11:12Z</time></trkpt><trkpt lat="59.0767214075" lon="30.0329762232"><ele>78.97</ele><time>2026-04-25T11:11:23Z</time></trkpt><trkpt lat="59.0767131094" lon="30.0328617264"><ele>78.97</ele><time>2026-04-25T11:11:35Z</time></trkpt><trkpt lat="59.0767356567" lon="30.0329274405"><ele>78.97</ele><time>2026-04-25T11:13:28Z</time></trkpt><trkpt lat="59.0767646581" lon="30.0328346528"><ele>79.45</ele><time>2026-04-25T11:13:48Z</time></trkpt><trkpt lat="59.0768109262" lon="30.0326798391"><ele>79.45</ele><time>2026-04-25T11:14:02Z</time></trkpt><trkpt lat="59.0768611338" lon="30.0325324014"><ele>78.97</ele><time>2026-04-25T11:14:15Z</time></trkpt><trkpt lat="59.0768659953" lon="30.0325026456"><ele>78.97</ele><time>2026-04-25T11:14:17Z</time></trkpt><trkpt lat="59.0769250877" lon="30.0323180761"><ele>78.97</ele><time>2026-04-25T11:14:33Z</time></trkpt><trkpt lat="59.0769384149" lon="30.0321963709"><ele>78.97</ele><time>2026-04-25T11:14:45Z</time></trkpt><trkpt lat="59.0769960824" lon="30.0319751725"><ele>78.97</ele><time>2026-04-25T11:15:00Z</time></trkpt><trkpt lat="59.0770381596" lon="30.0317932852"><ele>78.97</ele><time>2026-04-25T11:15:13Z</time></trkpt><trkpt lat="59.0771089867" lon="30.0315834861"><ele>78.97</ele><time>2026-04-25T11:15:28Z</time></trkpt><trkpt lat="59.0771553386" lon="30.0315326080"><ele>78.97</ele><time>2026-04-25T11:15:40Z</time></trkpt><trkpt lat="59.0772336256" lon="30.0314646307"><ele>78.97</ele><time>2026-04-25T11:15:52Z</time></trkpt><trkpt lat="59.0772374813" lon="30.0313950609"><ele>78.97</ele><time>2026-04-25T11:15:56Z</time></trkpt><trkpt lat="59.0772389062" lon="30.0313601922"><ele>78.97</ele><time>2026-04-25T11:15:58Z</time></trkpt><trkpt lat="59.0772751998" lon="30.0311927218"><ele>78.97</ele><time>2026-04-25T11:16:12Z</time></trkpt><trkpt lat="59.0773099009" lon="30.0310042128"><ele>78.48</ele><time>2026-04-25T11:16:25Z</time></trkpt><trkpt lat="59.0773865953" lon="30.0308415201"><ele>78.48</ele><time>2026-04-25T11:16:42Z</time></trkpt><trkpt lat="59.0774694923" lon="30.0307698548"><ele>78.48</ele><time>2026-04-25T11:16:54Z</time></trkpt><trkpt lat="59.0775168501" lon="30.0307067391"><ele>78.48</ele><time>2026-04-25T11:17:18Z</time></trkpt><trkpt lat="59.0775786247" lon="30.0306595489"><ele>78.48</ele><time>2026-04-25T11:17:31Z</time></trkpt><trkpt lat="59.0776383877" lon="30.0305763166"><ele>78.48</ele><time>2026-04-25T11:17:51Z</time></trkpt><trkpt lat="59.0776651260" lon="30.0304342434"><ele>78.48</ele><time>2026-04-25T11:18:06Z</time></trkpt><trkpt lat="59.0777082928" lon="30.0303984527"><ele>78.48</ele><time>2026-04-25T11:18:22Z</time></trkpt><trkpt lat="59.0777300857" lon="30.0303642545"><ele>78.48</ele><time>2026-04-25T11:18:37Z</time></trkpt><trkpt lat="59.0777512081" lon="30.0302517693"><ele>78.48</ele><time>2026-04-25T11:18:55Z</time></trkpt><trkpt lat="59.0777640324" lon="30.0301951915"><ele>78.00</ele><time>2026-04-25T11:19:15Z</time></trkpt><trkpt lat="59.0777802095" lon="30.0301817805"><ele>78.00</ele><time>2026-04-25T11:19:26Z</time></trkpt><trkpt lat="59.0778077021" lon="30.0302043278"><ele>78.00</ele><time>2026-04-25T11:19:37Z</time></trkpt><trkpt lat="59.0778432414" lon="30.0301744044"><ele>78.00</ele><time>2026-04-25T11:19:54Z</time></trkpt><trkpt lat="59.0778515395" lon="30.0301049184"><ele>78.00</ele><time>2026-04-25T11:20:12Z</time></trkpt><trkpt lat="59.0778735839" lon="30.0300246198"><ele>78.00</ele><time>2026-04-25T11:20:22Z</time></trkpt><trkpt lat="59.0778484382" lon="30.0298642740"><ele>77.52</ele><time>2026-04-25T11:20:40Z</time></trkpt><trkpt lat="59.0778794512" lon="30.0297184289"><ele>77.52</ele><time>2026-04-25T11:20:54Z</time></trkpt><trkpt lat="59.0779309161" lon="30.0296802074"><ele>77.52</ele><time>2026-04-25T11:21:04Z</time></trkpt><trkpt lat="59.0779845603" lon="30.0297024194"><ele>77.52</ele><time>2026-04-25T11:21:24Z</time></trkpt><trkpt lat="59.0779145714" lon="30.0297610089"><ele>77.04</ele><time>2026-04-25T11:22:09Z</time></trkpt><trkpt lat="59.0779696405" lon="30.0297367852"><ele>78.00</ele><time>2026-04-25T11:22:54Z</time></trkpt><trkpt lat="59.0780340135" lon="30.0297158305"><ele>76.56</ele><time>2026-04-25T11:24:41Z</time></trkpt><trkpt lat="59.0780116338" lon="30.0295766909"><ele>76.56</ele><time>2026-04-25T11:25:02Z</time></trkpt><trkpt lat="59.0780219436" lon="30.0294141658"><ele>76.56</ele><time>2026-04-25T11:25:18Z</time></trkpt><trkpt lat="59.0780277271" lon="30.0293752737"><ele>76.56</ele><time>2026-04-25T11:25:30Z</time></trkpt><trkpt lat="59.0780723188" lon="30.0294043589"><ele>76.56</ele><time>2026-04-25T11:25:44Z</time></trkpt><trkpt lat="59.0781137254" lon="30.0293067936"><ele>76.56</ele><time>2026-04-25T11:26:07Z</time></trkpt><trkpt lat="59.0781461634" lon="30.0292200409"><ele>76.08</ele><time>2026-04-25T11:26:23Z</time></trkpt><trkpt lat="59.0781591553" lon="30.0291352998"><ele>76.08</ele><time>2026-04-25T11:26:37Z</time></trkpt><trkpt lat="59.0782008134" lon="30.0290478766"><ele>76.08</ele><time>2026-04-25T11:26:53Z</time></trkpt><trkpt lat="59.0782252047" lon="30.0289958250"><ele>76.08</ele><time>2026-04-25T11:27:09Z</time></trkpt><trkpt lat="59.0782703832" lon="30.0289606210"><ele>76.08</ele><time>2026-04-25T11:27:23Z</time></trkpt><trkpt lat="59.0782719757" lon="30.0288182963"><ele>76.08</ele><time>2026-04-25T11:27:42Z</time></trkpt><trkpt lat="59.0783125442" lon="30.0289451145"><ele>76.08</ele><time>2026-04-25T11:28:14Z</time></trkpt><trkpt lat="59.0783358458" lon="30.0288709346"><ele>76.08</ele><time>2026-04-25T11:28:36Z</time></trkpt><trkpt lat="59.0783484187" lon="30.0288496446"><ele>76.08</ele><time>2026-04-25T11:28:39Z</time></trkpt><trkpt lat="59.0783562139" lon="30.0286768097"><ele>76.08</ele><time>2026-04-25T11:28:53Z</time></trkpt><trkpt lat="59.0784293041" lon="30.0285726227"><ele>76.08</ele><time>2026-04-25T11:29:07Z</time></trkpt><trkpt lat="59.0784538630" lon="30.0284121931"><ele>76.08</ele><time>2026-04-25T11:29:17Z</time></trkpt><trkpt lat="59.0784888156" lon="30.0283354148"><ele>76.08</ele><time>2026-04-25T11:29:28Z</time></trkpt><trkpt lat="59.0785588883" lon="30.0282458961"><ele>76.08</ele><time>2026-04-25T11:29:43Z</time></trkpt><trkpt lat="59.0785780828" lon="30.0281355064"><ele>76.08</ele><time>2026-04-25T11:29:59Z</time></trkpt><trkpt lat="59.0785801783" lon="30.0280960277"><ele>77.04</ele><time>2026-04-25T11:30:24Z</time></trkpt><trkpt lat="59.0785284620" lon="30.0280780066"><ele>77.04</ele><time>2026-04-25T11:30:50Z</time></trkpt><trkpt lat="59.0785168111" lon="30.0280467421"><ele>77.04</ele><time>2026-04-25T11:31:21Z</time></trkpt><trkpt lat="59.0785137098" lon="30.0279951934"><ele>76.56</ele><time>2026-04-25T11:31:33Z</time></trkpt><trkpt lat="59.0785145480" lon="30.0280443113"><ele>76.56</ele><time>2026-04-25T11:32:53Z</time></trkpt><trkpt lat="59.0785778314" lon="30.0279682036"><ele>76.56</ele><time>2026-04-25T11:33:07Z</time></trkpt><trkpt lat="59.0785823576" lon="30.0279406272"><ele>76.56</ele><time>2026-04-25T11:33:09Z</time></trkpt><trkpt lat="59.0786139574" lon="30.0278511923"><ele>76.56</ele><time>2026-04-25T11:33:20Z</time></trkpt><trkpt lat="59.0786047373" lon="30.0277287327"><ele>76.56</ele><time>2026-04-25T11:33:35Z</time></trkpt><trkpt lat="59.0786845330" lon="30.0275864918"><ele>76.56</ele><time>2026-04-25T11:33:49Z</time></trkpt><trkpt lat="59.0786840301" lon="30.0274429098"><ele>76.56</ele><time>2026-04-25T11:34:05Z</time></trkpt><trkpt lat="59.0786931664" lon="30.0273725018"><ele>76.56</ele><time>2026-04-25T11:34:20Z</time></trkpt><trkpt lat="59.0787915699" lon="30.0273443386"><ele>76.56</ele><time>2026-04-25T11:34:38Z</time></trkpt><trkpt lat="59.0788618941" lon="30.0272552390"><ele>76.56</ele><time>2026-04-25T11:34:51Z</time></trkpt><trkpt lat="59.0788718686" lon="30.0271208771"><ele>76.56</ele><time>2026-04-25T11:35:10Z</time></trkpt><trkpt lat="59.0788856149" lon="30.0271116570"><ele>76.56</ele><time>2026-04-25T11:35:12Z</time></trkpt><trkpt lat="59.0789089166" lon="30.0269690808"><ele>76.56</ele><time>2026-04-25T11:35:27Z</time></trkpt><trkpt lat="59.0789547656" lon="30.0269054621"><ele>76.56</ele><time>2026-04-25T11:35:40Z</time></trkpt><trkpt lat="59.0790310409" lon="30.0267762970"><ele>76.56</ele><time>2026-04-25T11:35:52Z</time></trkpt><trkpt lat="59.0790971741" lon="30.0267282687"><ele>77.04</ele><time>2026-04-25T11:36:05Z</time></trkpt><trkpt lat="59.0791311208" lon="30.0265820045"><ele>77.04</ele><time>2026-04-25T11:36:17Z</time></trkpt><trkpt lat="59.0791791491" lon="30.0264188088"><ele>77.04</ele><time>2026-04-25T11:36:32Z</time></trkpt><trkpt lat="59.0792679135" lon="30.0262744725"><ele>77.04</ele><time>2026-04-25T11:36:50Z</time></trkpt><trkpt lat="59.0793034527" lon="30.0261107739"><ele>77.04</ele><time>2026-04-25T11:37:07Z</time></trkpt><trkpt lat="59.0793282632" lon="30.0259555411"><ele>77.04</ele><time>2026-04-25T11:37:22Z</time></trkpt><trkpt lat="59.0793917980" lon="30.0259034056"><ele>77.04</ele><time>2026-04-25T11:37:41Z</time></trkpt><trkpt lat="59.0794627089" lon="30.0254953746"><ele>77.04</ele><time>2026-04-25T11:38:08Z</time></trkpt><trkpt lat="59.0795875993" lon="30.0254201051"><ele>77.04</ele><time>2026-04-25T11:38:29Z</time></trkpt><trkpt lat="59.0796983242" lon="30.0252162572"><ele>77.04</ele><time>2026-04-25T11:38:49Z</time></trkpt><trkpt lat="59.0797670558" lon="30.0250823982"><ele>77.04</ele><time>2026-04-25T11:39:06Z</time></trkpt><trkpt lat="59.0798561554" lon="30.0250195339"><ele>77.04</ele><time>2026-04-25T11:39:20Z</time></trkpt><trkpt lat="59.0799535532" lon="30.0248845853"><ele>77.04</ele><time>2026-04-25T11:39:37Z</time></trkpt><trkpt lat="59.0799867455" lon="30.0246254168"><ele>77.04</ele><time>2026-04-25T11:40:01Z</time></trkpt><trkpt lat="59.0800365340" lon="30.0246583577"><ele>77.04</ele><time>2026-04-25T11:40:40Z</time></trkpt><trkpt lat="59.0798449237" lon="30.0245419331"><ele>77.52</ele><time>2026-04-25T11:41:29Z</time></trkpt><trkpt lat="59.0798715781" lon="30.0243955012"><ele>77.52</ele><time>2026-04-25T11:42:14Z</time></trkpt><trkpt lat="59.0798833128" lon="30.0244124327"><ele>78.00</ele><time>2026-04-25T11:42:58Z</time></trkpt><trkpt lat="59.0798413195" lon="30.0245057233"><ele>78.00</ele><time>2026-04-25T11:43:30Z</time></trkpt><trkpt lat="59.0798782837" lon="30.0245186314"><ele>78.00</ele><time>2026-04-25T11:43:53Z</time></trkpt><trkpt lat="59.0798274893" lon="30.0244413503"><ele>78.00</ele><time>2026-04-25T11:44:32Z</time></trkpt><trkpt lat="59.0799163375" lon="30.0246197172"><ele>78.48</ele><time>2026-04-25T11:45:01Z</time></trkpt><trkpt lat="59.0799351968" lon="30.0248364732"><ele>78.97</ele><time>2026-04-25T11:45:41Z</time></trkpt><trkpt lat="59.0798443370" lon="30.0248403288"><ele>78.97</ele><time>2026-04-25T11:45:59Z</time></trkpt><trkpt lat="59.0797271580" lon="30.0248846691"><ele>78.97</ele><time>2026-04-25T11:46:14Z</time></trkpt><trkpt lat="59.0796123259" lon="30.0248953979"><ele>78.97</ele><time>2026-04-25T11:46:28Z</time></trkpt><trkpt lat="59.0795143414" lon="30.0247870199"><ele>78.97</ele><time>2026-04-25T11:46:40Z</time></trkpt><trkpt lat="59.0794034488" lon="30.0248088967"><ele>78.48</ele><time>2026-04-25T11:46:54Z</time></trkpt><trkpt lat="59.0793049615" lon="30.0248003472"><ele>78.48</ele><time>2026-04-25T11:47:08Z</time></trkpt><trkpt lat="59.0792587772" lon="30.0249081384"><ele>78.48</ele><time>2026-04-25T11:47:21Z</time></trkpt><trkpt lat="59.0792489704" lon="30.0250335317"><ele>78.97</ele><time>2026-04-25T11:48:17Z</time></trkpt><trkpt lat="59.0792298596" lon="30.0249246508"><ele>78.97</ele><time>2026-04-25T11:49:01Z</time></trkpt><trkpt lat="59.0792191308" lon="30.0249816477"><ele>79.93</ele><time>2026-04-25T11:49:32Z</time></trkpt><trkpt lat="59.0791607089" lon="30.0251003355"><ele>79.93</ele><time>2026-04-25T11:49:45Z</time></trkpt><trkpt lat="59.0790646523" lon="30.0251929555"><ele>79.93</ele><time>2026-04-25T11:49:59Z</time></trkpt><trkpt lat="59.0790036321" lon="30.0252368767"><ele>79.93</ele><time>2026-04-25T11:50:11Z</time></trkpt><trkpt lat="59.0790170431" lon="30.0254145730"><ele>79.45</ele><time>2026-04-25T11:50:23Z</time></trkpt><trkpt lat="59.0790060628" lon="30.0255807862"><ele>79.45</ele><time>2026-04-25T11:50:36Z</time></trkpt><trkpt lat="59.0788856149" lon="30.0256206002"><ele>79.45</ele><time>2026-04-25T11:50:49Z</time></trkpt><trkpt lat="59.0788767301" lon="30.0257106218"><ele>79.45</ele><time>2026-04-25T11:51:01Z</time></trkpt><trkpt lat="59.0788824297" lon="30.0257915910"><ele>79.45</ele><time>2026-04-25T11:51:39Z</time></trkpt><trkpt lat="59.0788925719" lon="30.0257891603"><ele>79.45</ele><time>2026-04-25T11:51:44Z</time></trkpt><trkpt lat="59.0789328888" lon="30.0257066824"><ele>79.45</ele><time>2026-04-25T11:51:50Z</time></trkpt><trkpt lat="59.0789355710" lon="30.0258175749"><ele>79.45</ele><time>2026-04-25T11:52:21Z</time></trkpt><trkpt lat="59.0790303703" lon="30.0258522760"><ele>78.97</ele><time>2026-04-25T11:52:35Z</time></trkpt><trkpt lat="59.0790288616" lon="30.0258683693"><ele>78.97</ele><time>2026-04-25T11:52:38Z</time></trkpt><trkpt lat="59.0790307056" lon="30.0259592291"><ele>78.97</ele><time>2026-04-25T11:52:56Z</time></trkpt><trkpt lat="59.0790499840" lon="30.0260840356"><ele>78.97</ele><time>2026-04-25T11:53:12Z</time></trkpt><trkpt lat="59.0790094994" lon="30.0261807628"><ele>78.97</ele><time>2026-04-25T11:53:37Z</time></trkpt><trkpt lat="59.0789789893" lon="30.0261631608"><ele>78.97</ele><time>2026-04-25T11:53:53Z</time></trkpt><trkpt lat="59.0789905563" lon="30.0261121150"><ele>78.97</ele><time>2026-04-25T11:53:59Z</time></trkpt><trkpt lat="59.0789168794" lon="30.0260888971"><ele>78.97</ele><time>2026-04-25T11:54:17Z</time></trkpt><trkpt lat="59.0788628999" lon="30.0259930920"><ele>78.97</ele><time>2026-04-25T11:54:36Z</time></trkpt><trkpt lat="59.0787908155" lon="30.0260693673"><ele>78.97</ele><time>2026-04-25T11:54:52Z</time></trkpt><trkpt lat="59.0787914861" lon="30.0261062477"><ele>78.97</ele><time>2026-04-25T11:55:00Z</time></trkpt><trkpt lat="59.0787173063" lon="30.0261745602"><ele>78.48</ele><time>2026-04-25T11:55:23Z</time></trkpt><trkpt lat="59.0786892269" lon="30.0262365863"><ele>78.48</ele><time>2026-04-25T11:55:42Z</time></trkpt><trkpt lat="59.0786739718" lon="30.0262047350"><ele>78.48</ele><time>2026-04-25T11:56:03Z</time></trkpt><trkpt lat="59.0786536876" lon="30.0261533540"><ele>78.48</ele><time>2026-04-25T11:56:33Z</time></trkpt><trkpt lat="59.0786567889" lon="30.0262919068"><ele>79.45</ele><time>2026-04-25T11:56:46Z</time></trkpt><trkpt lat="59.0786386840" lon="30.0262636598"><ele>79.45</ele><time>2026-04-25T11:56:57Z</time></trkpt><trkpt lat="59.0786464792" lon="30.0264104269"><ele>78.97</ele><time>2026-04-25T11:57:08Z</time></trkpt><trkpt lat="59.0786357503" lon="30.0264566112"><ele>78.97</ele><time>2026-04-25T11:57:22Z</time></trkpt><trkpt lat="59.0786178969" lon="30.0264297053"><ele>78.97</ele><time>2026-04-25T11:57:26Z</time></trkpt><trkpt lat="59.0785373468" lon="30.0264136959"><ele>78.97</ele><time>2026-04-25T11:57:42Z</time></trkpt><trkpt lat="59.0784803499" lon="30.0264325552"><ele>78.97</ele><time>2026-04-25T11:58:08Z</time></trkpt><trkpt lat="59.0784708783" lon="30.0264559407"><ele>78.97</ele><time>2026-04-25T11:58:13Z</time></trkpt><trkpt lat="59.0784368478" lon="30.0265307073"><ele>78.97</ele><time>2026-04-25T11:58:37Z</time></trkpt><trkpt lat="59.0784141328" lon="30.0265225768"><ele>78.97</ele><time>2026-04-25T11:58:53Z</time></trkpt><trkpt lat="59.0784287173" lon="30.0266224053"><ele>78.97</ele><time>2026-04-25T11:59:13Z</time></trkpt><trkpt lat="59.0784529410" lon="30.0265514106"><ele>79.45</ele><time>2026-04-25T11:59:40Z</time></trkpt><trkpt lat="59.0784103610" lon="30.0266750436"><ele>79.45</ele><time>2026-04-25T11:59:56Z</time></trkpt><trkpt lat="59.0784479119" lon="30.0267051347"><ele>79.45</ele><time>2026-04-25T12:00:18Z</time></trkpt><trkpt lat="59.0784635022" lon="30.0267824996"><ele>79.45</ele><time>2026-04-25T12:00:34Z</time></trkpt><trkpt lat="59.0783947706" lon="30.0268530753"><ele>79.45</ele><time>2026-04-25T12:00:55Z</time></trkpt><trkpt lat="59.0783418808" lon="30.0269365590"><ele>79.45</ele><time>2026-04-25T12:01:06Z</time></trkpt><trkpt lat="59.0782884881" lon="30.0269797258"><ele>78.97</ele><time>2026-04-25T12:01:26Z</time></trkpt><trkpt lat="59.0782821178" lon="30.0268252473"><ele>78.97</ele><time>2026-04-25T12:01:56Z</time></trkpt><trkpt lat="59.0782022383" lon="30.0269114133"><ele>80.41</ele><time>2026-04-25T12:02:14Z</time></trkpt><trkpt lat="59.0781430621" lon="30.0270329509"><ele>80.41</ele><time>2026-04-25T12:02:46Z</time></trkpt><trkpt lat="59.0780889988" lon="30.0270522293"><ele>78.97</ele><time>2026-04-25T12:03:08Z</time></trkpt><trkpt lat="59.0780563094" lon="30.0270380639"><ele>78.97</ele><time>2026-04-25T12:03:38Z</time></trkpt><trkpt lat="59.0780262183" lon="30.0270813983"><ele>78.97</ele><time>2026-04-25T12:04:10Z</time></trkpt><trkpt lat="59.0779665392" lon="30.0271192845"><ele>78.48</ele><time>2026-04-25T12:04:30Z</time></trkpt><trkpt lat="59.0779170860" lon="30.0275230408"><ele>78.48</ele><time>2026-04-25T12:05:11Z</time></trkpt><trkpt lat="59.0778123960" lon="30.0276586600"><ele>78.48</ele><time>2026-04-25T12:05:33Z</time></trkpt><trkpt lat="59.0777988173" lon="30.0277057663"><ele>78.00</ele><time>2026-04-25T12:05:49Z</time></trkpt><trkpt lat="59.0778403077" lon="30.0279119611"><ele>78.00</ele><time>2026-04-25T12:06:17Z</time></trkpt><trkpt lat="59.0778063610" lon="30.0280344207"><ele>78.97</ele><time>2026-04-25T12:07:06Z</time></trkpt><trkpt lat="59.0778572392" lon="30.0280018151"><ele>78.97</ele><time>2026-04-25T12:07:37Z</time></trkpt><trkpt lat="59.0779211931" lon="30.0277911779"><ele>78.97</ele><time>2026-04-25T12:08:06Z</time></trkpt><trkpt lat="59.0778711531" lon="30.0279369392"><ele>78.48</ele><time>2026-04-25T12:08:53Z</time></trkpt><trkpt lat="59.0778416488" lon="30.0280570518"><ele>78.97</ele><time>2026-04-25T12:09:34Z</time></trkpt><trkpt lat="59.0778509527" lon="30.0280729774"><ele>78.97</ele><time>2026-04-25T12:09:52Z</time></trkpt><trkpt lat="59.0778053552" lon="30.0281184074"><ele>78.97</ele><time>2026-04-25T12:10:03Z</time></trkpt><trkpt lat="59.0777498670" lon="30.0282503385"><ele>78.97</ele><time>2026-04-25T12:10:14Z</time></trkpt><trkpt lat="59.0777327679" lon="30.0286004506"><ele>103.96</ele><time>2026-04-25T12:12:51Z</time></trkpt><trkpt lat="59.0775721706" lon="30.0284204073"><ele>103.96</ele><time>2026-04-25T12:12:53Z</time></trkpt><trkpt lat="59.0775659680" lon="30.0282814354"><ele>97.71</ele><time>2026-04-25T12:12:57Z</time></trkpt><trkpt lat="59.0775959753" lon="30.0282905716"><ele>94.83</ele><time>2026-04-25T12:13:00Z</time></trkpt><trkpt lat="59.0776010044" lon="30.0282785855"><ele>92.90</ele><time>2026-04-25T12:13:04Z</time></trkpt><trkpt lat="59.0775901917" lon="30.0283582974"><ele>89.54</ele><time>2026-04-25T12:13:09Z</time></trkpt><trkpt lat="59.0775797982" lon="30.0283787493"><ele>86.18</ele><time>2026-04-25T12:13:18Z</time></trkpt><trkpt lat="59.0775354579" lon="30.0284589641"><ele>82.81</ele><time>2026-04-25T12:13:28Z</time></trkpt><trkpt lat="59.0774720907" lon="30.0285387598"><ele>79.45</ele><time>2026-04-25T12:13:40Z</time></trkpt><trkpt lat="59.0774452686" lon="30.0287550129"><ele>76.56</ele><time>2026-04-25T12:13:57Z</time></trkpt><trkpt lat="59.0773730166" lon="30.0289014447"><ele>73.68</ele><time>2026-04-25T12:14:15Z</time></trkpt><trkpt lat="59.0773302689" lon="30.0289880298"><ele>72.72</ele><time>2026-04-25T12:14:33Z</time></trkpt><trkpt lat="59.0772577655" lon="30.0289969146"><ele>72.24</ele><time>2026-04-25T12:14:49Z</time></trkpt><trkpt lat="59.0771644749" lon="30.0292135868"><ele>72.24</ele><time>2026-04-25T12:15:08Z</time></trkpt><trkpt lat="59.0770959947" lon="30.0295118988"><ele>72.24</ele><time>2026-04-25T12:15:27Z</time></trkpt><trkpt lat="59.0770108346" lon="30.0296781119"><ele>72.24</ele><time>2026-04-25T12:16:02Z</time></trkpt><trkpt lat="59.0769996028" lon="30.0297090411"><ele>72.24</ele><time>2026-04-25T12:16:20Z</time></trkpt><trkpt lat="59.0769586992" lon="30.0297766831"><ele>72.24</ele><time>2026-04-25T12:16:38Z</time></trkpt><trkpt lat="59.0769063123" lon="30.0297958776"><ele>72.24</ele><time>2026-04-25T12:16:59Z</time></trkpt><trkpt lat="59.0768813342" lon="30.0298257172"><ele>72.24</ele><time>2026-04-25T12:17:16Z</time></trkpt><trkpt lat="59.0768978465" lon="30.0298334286"><ele>72.24</ele><time>2026-04-25T12:17:36Z</time></trkpt><trkpt lat="59.0767511632" lon="30.0299102068"><ele>72.24</ele><time>2026-04-25T12:17:56Z</time></trkpt><trkpt lat="59.0767289512" lon="30.0299724843"><ele>72.24</ele><time>2026-04-25T12:18:15Z</time></trkpt><trkpt lat="59.0767405182" lon="30.0300843827"><ele>72.24</ele><time>2026-04-25T12:18:29Z</time></trkpt><trkpt lat="59.0766934119" lon="30.0302957743"><ele>72.24</ele><time>2026-04-25T12:18:47Z</time></trkpt><trkpt lat="59.0766161308" lon="30.0304581318"><ele>73.20</ele><time>2026-04-25T12:19:08Z</time></trkpt><trkpt lat="59.0765212476" lon="30.0304555334"><ele>73.20</ele><time>2026-04-25T12:19:24Z</time></trkpt><trkpt lat="59.0764649212" lon="30.0306693558"><ele>72.72</ele><time>2026-04-25T12:19:42Z</time></trkpt><trkpt lat="59.0763941780" lon="30.0307102595"><ele>70.79</ele><time>2026-04-25T12:20:03Z</time></trkpt><trkpt lat="59.0763953514" lon="30.0306809228"><ele>74.16</ele><time>2026-04-25T12:20:10Z</time></trkpt><trkpt lat="59.0764922462" lon="30.0305908173"><ele>72.72</ele><time>2026-04-25T12:20:58Z</time></trkpt><trkpt lat="59.0765028913" lon="30.0307502411"><ele>72.24</ele><time>2026-04-25T12:21:20Z</time></trkpt><trkpt lat="59.0765086748" lon="30.0306896400"><ele>71.27</ele><time>2026-04-25T12:22:55Z</time></trkpt><trkpt lat="59.0765310545" lon="30.0306551903"><ele>71.27</ele><time>2026-04-25T12:23:30Z</time></trkpt><trkpt lat="59.0764963534" lon="30.0306758936"><ele>72.24</ele><time>2026-04-25T12:23:45Z</time></trkpt><trkpt lat="59.0764914081" lon="30.0306839403"><ele>72.24</ele><time>2026-04-25T12:23:46Z</time></trkpt><trkpt lat="59.0764898993" lon="30.0308675040"><ele>72.72</ele><time>2026-04-25T12:24:02Z</time></trkpt><trkpt lat="59.0764586348" lon="30.0310323760"><ele>72.72</ele><time>2026-04-25T12:24:14Z</time></trkpt><trkpt lat="59.0764101036" lon="30.0312371459"><ele>72.72</ele><time>2026-04-25T12:24:30Z</time></trkpt><trkpt lat="59.0763829462" lon="30.0313785486"><ele>72.72</ele><time>2026-04-25T12:24:42Z</time></trkpt><trkpt lat="59.0763800126" lon="30.0313950609"><ele>72.72</ele><time>2026-04-25T12:24:48Z</time></trkpt><trkpt lat="59.0763513464" lon="30.0316006690"><ele>73.68</ele><time>2026-04-25T12:25:02Z</time></trkpt><trkpt lat="59.0763103589" lon="30.0315753557"><ele>73.68</ele><time>2026-04-25T12:25:11Z</time></trkpt><trkpt lat="59.0763246082" lon="30.0315810554"><ele>73.68</ele><time>2026-04-25T12:26:02Z</time></trkpt><trkpt lat="59.0763454791" lon="30.0315618608"><ele>73.68</ele><time>2026-04-25T12:26:51Z</time></trkpt><trkpt lat="59.0763143823" lon="30.0315673091"><ele>73.68</ele><time>2026-04-25T12:27:19Z</time></trkpt><trkpt lat="59.0763418749" lon="30.0315610226"><ele>73.68</ele><time>2026-04-25T12:27:51Z</time></trkpt><trkpt lat="59.0763513464" lon="30.0315365475"><ele>73.68</ele><time>2026-04-25T12:28:20Z</time></trkpt><trkpt lat="59.0763461497" lon="30.0315582566"><ele>73.68</ele><time>2026-04-25T12:28:23Z</time></trkpt><trkpt lat="59.0763749834" lon="30.0317436643"><ele>73.68</ele><time>2026-04-25T12:28:52Z</time></trkpt><trkpt lat="59.0763434675" lon="30.0314916205"><ele>73.68</ele><time>2026-04-25T12:29:39Z</time></trkpt><trkpt lat="59.0763828624" lon="30.0314572547"><ele>73.68</ele><time>2026-04-25T12:30:10Z</time></trkpt><trkpt lat="59.0763153881" lon="30.0314197037"><ele>73.68</ele><time>2026-04-25T12:30:31Z</time></trkpt><trkpt lat="59.0762707125" lon="30.0313850865"><ele>73.68</ele><time>2026-04-25T12:30:43Z</time></trkpt><trkpt lat="59.0762625821" lon="30.0312792230"><ele>73.68</ele><time>2026-04-25T12:30:58Z</time></trkpt><trkpt lat="59.0762283001" lon="30.0311827473"><ele>73.68</ele><time>2026-04-25T12:31:13Z</time></trkpt><trkpt lat="59.0761830378" lon="30.0310376566"><ele>73.68</ele><time>2026-04-25T12:31:27Z</time></trkpt><trkpt lat="59.0761673637" lon="30.0309159514"><ele>74.16</ele><time>2026-04-25T12:31:39Z</time></trkpt><trkpt lat="59.0761823673" lon="30.0307982694"><ele>74.16</ele><time>2026-04-25T12:31:53Z</time></trkpt><trkpt lat="59.0761973709" lon="30.0306919869"><ele>74.16</ele><time>2026-04-25T12:32:16Z</time></trkpt><trkpt lat="59.0761769190" lon="30.0306736305"><ele>74.16</ele><time>2026-04-25T12:32:24Z</time></trkpt><trkpt lat="59.0761787631" lon="30.0306050666"><ele>74.64</ele><time>2026-04-25T12:32:49Z</time></trkpt><trkpt lat="59.0761578083" lon="30.0306166336"><ele>74.16</ele><time>2026-04-25T12:33:13Z</time></trkpt><trkpt lat="59.0761644300" lon="30.0305798370"><ele>74.16</ele><time>2026-04-25T12:33:29Z</time></trkpt><trkpt lat="59.0761333331" lon="30.0305638276"><ele>74.16</ele><time>2026-04-25T12:33:45Z</time></trkpt><trkpt lat="59.0760765038" lon="30.0305137038"><ele>74.16</ele><time>2026-04-25T12:34:01Z</time></trkpt><trkpt lat="59.0760435630" lon="30.0305112731"><ele>74.64</ele><time>2026-04-25T12:34:14Z</time></trkpt><trkpt lat="59.0759948641" lon="30.0304106064"><ele>74.64</ele><time>2026-04-25T12:34:30Z</time></trkpt><trkpt lat="59.0760341752" lon="30.0303619076"><ele>74.64</ele><time>2026-04-25T12:34:44Z</time></trkpt><trkpt lat="59.0760081075" lon="30.0302570499"><ele>74.64</ele><time>2026-04-25T12:34:59Z</time></trkpt><trkpt lat="59.0759928524" lon="30.0302396156"><ele>74.64</ele><time>2026-04-25T12:35:08Z</time></trkpt><trkpt lat="59.0759832971" lon="30.0302112848"><ele>74.64</ele><time>2026-04-25T12:35:10Z</time></trkpt><trkpt lat="59.0759931039" lon="30.0300872326"><ele>74.64</ele><time>2026-04-25T12:35:21Z</time></trkpt><trkpt lat="59.0760256257" lon="30.0300269667"><ele>74.64</ele><time>2026-04-25T12:35:33Z</time></trkpt><trkpt lat="59.0760806110" lon="30.0300090294"><ele>74.64</ele><time>2026-04-25T12:36:02Z</time></trkpt><trkpt lat="59.0760510229" lon="30.0299992226"><ele>74.64</ele><time>2026-04-25T12:36:07Z</time></trkpt><trkpt lat="59.0760271344" lon="30.0299740769"><ele>74.16</ele><time>2026-04-25T12:36:43Z</time></trkpt><trkpt lat="59.0760587342" lon="30.0300058443"><ele>76.08</ele><time>2026-04-25T12:37:48Z</time></trkpt><trkpt lat="59.0759823751" lon="30.0299601629"><ele>74.16</ele><time>2026-04-25T12:38:28Z</time></trkpt><trkpt lat="59.0759783518" lon="30.0299586542"><ele>74.16</ele><time>2026-04-25T12:38:29Z</time></trkpt><trkpt lat="59.0759236179" lon="30.0298858155"><ele>74.16</ele><time>2026-04-25T12:38:40Z</time></trkpt><trkpt lat="59.0759311616" lon="30.0298449118"><ele>73.68</ele><time>2026-04-25T12:38:54Z</time></trkpt><trkpt lat="59.0758991428" lon="30.0297805388"><ele>73.68</ele><time>2026-04-25T12:39:08Z</time></trkpt><trkpt lat="59.0758799482" lon="30.0297437422"><ele>76.08</ele><time>2026-04-25T12:40:12Z</time></trkpt><trkpt lat="59.0758289024" lon="30.0297069456"><ele>74.64</ele><time>2026-04-25T12:40:26Z</time></trkpt><trkpt lat="59.0758656990" lon="30.0296395551"><ele>74.64</ele><time>2026-04-25T12:40:43Z</time></trkpt><trkpt lat="59.0758982208" lon="30.0295642857"><ele>74.64</ele><time>2026-04-25T12:40:53Z</time></trkpt><trkpt lat="59.0759529546" lon="30.0295186043"><ele>74.64</ele><time>2026-04-25T12:41:10Z</time></trkpt><trkpt lat="59.0759908408" lon="30.0293647125"><ele>73.20</ele><time>2026-04-25T12:41:25Z</time></trkpt><trkpt lat="59.0759528708" lon="30.0292477850"><ele>73.20</ele><time>2026-04-25T12:41:41Z</time></trkpt><trkpt lat="59.0760077722" lon="30.0291565061"><ele>73.20</ele><time>2026-04-25T12:41:58Z</time></trkpt><trkpt lat="59.0760691278" lon="30.0292042829"><ele>73.20</ele><time>2026-04-25T12:42:12Z</time></trkpt><trkpt lat="59.0761423018" lon="30.0292357150"><ele>73.20</ele><time>2026-04-25T12:42:28Z</time></trkpt><trkpt lat="59.0761829540" lon="30.0291456096"><ele>73.20</ele><time>2026-04-25T12:42:42Z</time></trkpt><trkpt lat="59.0762227681" lon="30.0291018561"><ele>73.20</ele><time>2026-04-25T12:42:57Z</time></trkpt><trkpt lat="59.0762168169" lon="30.0290208869"><ele>73.20</ele><time>2026-04-25T12:43:12Z</time></trkpt><trkpt lat="59.0762361791" lon="30.0290041231"><ele>73.20</ele><time>2026-04-25T12:43:34Z</time></trkpt><trkpt lat="59.0763108619" lon="30.0289808214"><ele>73.20</ele><time>2026-04-25T12:43:53Z</time></trkpt><trkpt lat="59.0763233509" lon="30.0288713537"><ele>73.20</ele><time>2026-04-25T12:44:07Z</time></trkpt><trkpt lat="59.0763907414" lon="30.0287939887"><ele>73.20</ele><time>2026-04-25T12:44:22Z</time></trkpt><trkpt lat="59.0764492471" lon="30.0286453776"><ele>74.16</ele><time>2026-04-25T12:44:37Z</time></trkpt><trkpt lat="59.0764684416" lon="30.0285986066"><ele>74.16</ele><time>2026-04-25T12:44:43Z</time></trkpt><trkpt lat="59.0764891449" lon="30.0284675974"><ele>74.16</ele><time>2026-04-25T12:44:55Z</time></trkpt><trkpt lat="59.0765261929" lon="30.0284169707"><ele>74.16</ele><time>2026-04-25T12:45:12Z</time></trkpt><trkpt lat="59.0765670966" lon="30.0282779150"><ele>74.16</ele><time>2026-04-25T12:45:34Z</time></trkpt><trkpt lat="59.0765908174" lon="30.0282289647"><ele>74.16</ele><time>2026-04-25T12:45:41Z</time></trkpt><trkpt lat="59.0766313020" lon="30.0281399488"><ele>74.16</ele><time>2026-04-25T12:45:59Z</time></trkpt><trkpt lat="59.0766153764" lon="30.0281061698"><ele>74.16</ele><time>2026-04-25T12:46:11Z</time></trkpt><trkpt lat="59.0766054858" lon="30.0279587321"><ele>74.16</ele><time>2026-04-25T12:46:28Z</time></trkpt><trkpt lat="59.0766867902" lon="30.0278325845"><ele>73.68</ele><time>2026-04-25T12:46:45Z</time></trkpt><trkpt lat="59.0768229123" lon="30.0278298184"><ele>72.72</ele><time>2026-04-25T12:47:21Z</time></trkpt><trkpt lat="59.0768005326" lon="30.0277692173"><ele>72.72</ele><time>2026-04-25T12:47:58Z</time></trkpt><trkpt lat="59.0768003650" lon="30.0276482664"><ele>72.72</ele><time>2026-04-25T12:48:19Z</time></trkpt><trkpt lat="59.0768606309" lon="30.0275898445"><ele>72.72</ele><time>2026-04-25T12:48:41Z</time></trkpt><trkpt lat="59.0769291949" lon="30.0275232922"><ele>72.72</ele><time>2026-04-25T12:49:15Z</time></trkpt><trkpt lat="59.0770517383" lon="30.0275404751"><ele>72.72</ele><time>2026-04-25T12:49:33Z</time></trkpt><trkpt lat="59.0771193802" lon="30.0273008365"><ele>72.72</ele><time>2026-04-25T12:49:48Z</time></trkpt><trkpt lat="59.0771087352" lon="30.0270333700"><ele>72.72</ele><time>2026-04-25T12:50:03Z</time></trkpt><trkpt lat="59.0771243256" lon="30.0269389059"><ele>73.68</ele><time>2026-04-25T12:50:18Z</time></trkpt><trkpt lat="59.0771086514" lon="30.0269206334"><ele>73.68</ele><time>2026-04-25T12:50:43Z</time></trkpt><trkpt lat="59.0771328751" lon="30.0268434361"><ele>73.68</ele><time>2026-04-25T12:51:03Z</time></trkpt><trkpt lat="59.0772141796" lon="30.0266886223"><ele>73.68</ele><time>2026-04-25T12:51:20Z</time></trkpt><trkpt lat="59.0772587713" lon="30.0265213195"><ele>73.68</ele><time>2026-04-25T12:51:38Z</time></trkpt><trkpt lat="59.0772870183" lon="30.0263475627"><ele>73.68</ele><time>2026-04-25T12:51:56Z</time></trkpt><trkpt lat="59.0773275867" lon="30.0261246879"><ele>74.16</ele><time>2026-04-25T12:52:15Z</time></trkpt><trkpt lat="59.0773793031" lon="30.0259055011"><ele>74.16</ele><time>2026-04-25T12:52:31Z</time></trkpt><trkpt lat="59.0774906147" lon="30.0258987118"><ele>74.16</ele><time>2026-04-25T12:53:15Z</time></trkpt><trkpt lat="59.0775471088" lon="30.0259011425"><ele>74.16</ele><time>2026-04-25T12:53:32Z</time></trkpt><trkpt lat="59.0776926186" lon="30.0258427206"><ele>74.16</ele><time>2026-04-25T12:53:54Z</time></trkpt><trkpt lat="59.0777141601" lon="30.0257282238"><ele>74.16</ele><time>2026-04-25T12:54:10Z</time></trkpt><trkpt lat="59.0777699836" lon="30.0256903376"><ele>75.12</ele><time>2026-04-25T12:54:47Z</time></trkpt><trkpt lat="59.0778168384" lon="30.0256923493"><ele>75.12</ele><time>2026-04-25T12:55:53Z</time></trkpt><trkpt lat="59.0777450893" lon="30.0257160701"><ele>75.12</ele><time>2026-04-25T12:56:11Z</time></trkpt><trkpt lat="59.0776574146" lon="30.0258272141"><ele>76.08</ele><time>2026-04-25T12:57:11Z</time></trkpt><trkpt lat="59.0776763577" lon="30.0257854722"><ele>76.08</ele><time>2026-04-25T12:58:17Z</time></trkpt><trkpt lat="59.0776693169" lon="30.0259575527"><ele>75.12</ele><time>2026-04-25T12:59:13Z</time></trkpt><trkpt lat="59.0777727496" lon="30.0260037370"><ele>75.12</ele><time>2026-04-25T12:59:48Z</time></trkpt><trkpt lat="59.0776564088" lon="30.0258197542"><ele>75.12</ele><time>2026-04-25T13:00:11Z</time></trkpt><trkpt lat="59.0776369628" lon="30.0256790221"><ele>75.12</ele><time>2026-04-25T13:00:48Z</time></trkpt><trkpt lat="59.0776611026" lon="30.0258105341"><ele>75.12</ele><time>2026-04-25T13:01:06Z</time></trkpt><trkpt lat="59.0775942989" lon="30.0258710515"><ele>75.12</ele><time>2026-04-25T13:01:23Z</time></trkpt><trkpt lat="59.0775481984" lon="30.0259138830"><ele>75.12</ele><time>2026-04-25T13:01:35Z</time></trkpt><trkpt lat="59.0774409100" lon="30.0260447245"><ele>75.12</ele><time>2026-04-25T13:01:52Z</time></trkpt><trkpt lat="59.0773808956" lon="30.0259236898"><ele>75.12</ele><time>2026-04-25T13:02:06Z</time></trkpt><trkpt lat="59.0773203783" lon="30.0258647650"><ele>75.12</ele><time>2026-04-25T13:02:21Z</time></trkpt><trkpt lat="59.0772487130" lon="30.0259048305"><ele>75.12</ele><time>2026-04-25T13:02:36Z</time></trkpt><trkpt lat="59.0772007685" lon="30.0260080956"><ele>75.12</ele><time>2026-04-25T13:02:50Z</time></trkpt><trkpt lat="59.0771492198" lon="30.0260381866"><ele>75.12</ele><time>2026-04-25T13:03:01Z</time></trkpt><trkpt lat="59.0770783089" lon="30.0260930043"><ele>75.12</ele><time>2026-04-25T13:03:14Z</time></trkpt><trkpt lat="59.0770469606" lon="30.0261037331"><ele>76.08</ele><time>2026-04-25T13:03:23Z</time></trkpt><trkpt lat="59.0770183783" lon="30.0260873884"><ele>76.08</ele><time>2026-04-25T13:03:33Z</time></trkpt><trkpt lat="59.0769640636" lon="30.0260826107"><ele>76.08</ele><time>2026-04-25T13:03:45Z</time></trkpt><trkpt lat="59.0769204777" lon="30.0260492507"><ele>76.08</ele><time>2026-04-25T13:04:04Z</time></trkpt><trkpt lat="59.0768620558" lon="30.0260168128"><ele>76.08</ele><time>2026-04-25T13:04:15Z</time></trkpt><trkpt lat="59.0768230800" lon="30.0260915793"><ele>76.08</ele><time>2026-04-25T13:04:32Z</time></trkpt><trkpt lat="59.0767327230" lon="30.0261646695"><ele>76.56</ele><time>2026-04-25T13:04:54Z</time></trkpt><trkpt lat="59.0766636562" lon="30.0262322277"><ele>76.56</ele><time>2026-04-25T13:05:15Z</time></trkpt><trkpt lat="59.0766254347" lon="30.0262139551"><ele>76.56</ele><time>2026-04-25T13:05:37Z</time></trkpt><trkpt lat="59.0765348263" lon="30.0262694433"><ele>76.56</ele><time>2026-04-25T13:05:53Z</time></trkpt><trkpt lat="59.0765401907" lon="30.0262919907"><ele>76.56</ele><time>2026-04-25T13:06:11Z</time></trkpt><trkpt lat="59.0764859598" lon="30.0262932479"><ele>77.52</ele><time>2026-04-25T13:07:00Z</time></trkpt><trkpt lat="59.0764308907" lon="30.0264287833"><ele>77.52</ele><time>2026-04-25T13:07:26Z</time></trkpt><trkpt lat="59.0763858799" lon="30.0264359917"><ele>77.52</ele><time>2026-04-25T13:07:35Z</time></trkpt><trkpt lat="59.0763546154" lon="30.0266908854"><ele>77.52</ele><time>2026-04-25T13:07:59Z</time></trkpt><trkpt lat="59.0762440581" lon="30.0268846750"><ele>77.52</ele><time>2026-04-25T13:08:23Z</time></trkpt><trkpt lat="59.0762022324" lon="30.0269597769"><ele>77.52</ele><time>2026-04-25T13:08:33Z</time></trkpt><trkpt lat="59.0761987120" lon="30.0269706734"><ele>77.52</ele><time>2026-04-25T13:08:34Z</time></trkpt><trkpt lat="59.0761206765" lon="30.0270383991"><ele>77.52</ele><time>2026-04-25T13:08:47Z</time></trkpt><trkpt lat="59.0760513581" lon="30.0270420872"><ele>77.52</ele><time>2026-04-25T13:09:01Z</time></trkpt><trkpt lat="59.0760610811" lon="30.0271484535"><ele>77.52</ele><time>2026-04-25T13:09:16Z</time></trkpt><trkpt lat="59.0760248713" lon="30.0271922909"><ele>77.52</ele><time>2026-04-25T13:09:28Z</time></trkpt><trkpt lat="59.0760392044" lon="30.0273458473"><ele>77.52</ele><time>2026-04-25T13:09:39Z</time></trkpt><trkpt lat="59.0760030784" lon="30.0274056941"><ele>78.00</ele><time>2026-04-25T13:10:17Z</time></trkpt><trkpt lat="59.0759944450" lon="30.0273616891"><ele>78.00</ele><time>2026-04-25T13:10:40Z</time></trkpt><trkpt lat="59.0759962890" lon="30.0273300055"><ele>78.00</ele><time>2026-04-25T13:11:28Z</time></trkpt><trkpt lat="59.0760019049" lon="30.0274065323"><ele>78.00</ele><time>2026-04-25T13:12:04Z</time></trkpt><trkpt lat="59.0759442374" lon="30.0276118051"><ele>78.00</ele><time>2026-04-25T13:12:19Z</time></trkpt><trkpt lat="59.0759279765" lon="30.0277537107"><ele>78.00</ele><time>2026-04-25T13:12:31Z</time></trkpt><trkpt lat="59.0759211872" lon="30.0277978834"><ele>78.00</ele><time>2026-04-25T13:12:40Z</time></trkpt><trkpt lat="59.0759063512" lon="30.0278863125"><ele>78.00</ele><time>2026-04-25T13:12:54Z</time></trkpt><trkpt lat="59.0759439860" lon="30.0280062575"><ele>78.00</ele><time>2026-04-25T13:13:09Z</time></trkpt><trkpt lat="59.0759237856" lon="30.0280575547"><ele>78.00</ele><time>2026-04-25T13:13:24Z</time></trkpt><trkpt lat="59.0758340992" lon="30.0280992128"><ele>78.00</ele><time>2026-04-25T13:13:37Z</time></trkpt><trkpt lat="59.0758154914" lon="30.0281343330"><ele>77.52</ele><time>2026-04-25T13:13:52Z</time></trkpt><trkpt lat="59.0757774375" lon="30.0281135458"><ele>77.52</ele><time>2026-04-25T13:14:08Z</time></trkpt><trkpt lat="59.0757538006" lon="30.0281469896"><ele>77.52</ele><time>2026-04-25T13:14:31Z</time></trkpt><trkpt lat="59.0756901819" lon="30.0282422081"><ele>77.52</ele><time>2026-04-25T13:14:44Z</time></trkpt><trkpt lat="59.0756894276" lon="30.0281464029"><ele>77.52</ele><time>2026-04-25T13:15:19Z</time></trkpt><trkpt lat="59.0756614320" lon="30.0280749891"><ele>77.52</ele><time>2026-04-25T13:15:34Z</time></trkpt><trkpt lat="59.0756634437" lon="30.0280340854"><ele>77.52</ele><time>2026-04-25T13:15:46Z</time></trkpt><trkpt lat="59.0755968075" lon="30.0280127954"><ele>77.52</ele><time>2026-04-25T13:16:02Z</time></trkpt><trkpt lat="59.0755476058" lon="30.0278558861"><ele>77.52</ele><time>2026-04-25T13:16:18Z</time></trkpt><trkpt lat="59.0755295008" lon="30.0278234482"><ele>77.52</ele><time>2026-04-25T13:16:21Z</time></trkpt><trkpt lat="59.0754952189" lon="30.0276413932"><ele>77.52</ele><time>2026-04-25T13:16:40Z</time></trkpt><trkpt lat="59.0755108930" lon="30.0274938717"><ele>78.00</ele><time>2026-04-25T13:17:02Z</time></trkpt><trkpt lat="59.0755062830" lon="30.0274275709"><ele>78.00</ele><time>2026-04-25T13:17:37Z</time></trkpt><trkpt lat="59.0754698217" lon="30.0274956319"><ele>78.48</ele><time>2026-04-25T13:18:30Z</time></trkpt><trkpt lat="59.0754329413" lon="30.0275216158"><ele>78.48</ele><time>2026-04-25T13:18:44Z</time></trkpt><trkpt lat="59.0753616113" lon="30.0274559017"><ele>77.52</ele><time>2026-04-25T13:19:10Z</time></trkpt><trkpt lat="59.0753319394" lon="30.0275338534"><ele>77.52</ele><time>2026-04-25T13:19:35Z</time></trkpt><trkpt lat="59.0753119066" lon="30.0274942070"><ele>78.48</ele><time>2026-04-25T13:19:48Z</time></trkpt><trkpt lat="59.0753004234" lon="30.0274815504"><ele>78.00</ele><time>2026-04-25T13:20:21Z</time></trkpt><trkpt lat="59.0752746910" lon="30.0275913533"><ele>77.52</ele><time>2026-04-25T13:21:31Z</time></trkpt><trkpt lat="59.0752639621" lon="30.0275413133"><ele>77.52</ele><time>2026-04-25T13:21:57Z</time></trkpt><trkpt lat="59.0752707515" lon="30.0275279023"><ele>77.52</ele><time>2026-04-25T13:23:03Z</time></trkpt><trkpt lat="59.0752684884" lon="30.0275246333"><ele>77.04</ele><time>2026-04-25T13:23:36Z</time></trkpt><trkpt lat="59.0752227232" lon="30.0275687221"><ele>77.04</ele><time>2026-04-25T13:24:41Z</time></trkpt><trkpt lat="59.0751986671" lon="30.0274954643"><ele>77.04</ele><time>2026-04-25T13:26:10Z</time></trkpt><trkpt lat="59.0751497168" lon="30.0275080372"><ele>77.04</ele><time>2026-04-25T13:26:22Z</time></trkpt><trkpt lat="59.0751068015" lon="30.0275211968"><ele>77.04</ele><time>2026-04-25T13:26:33Z</time></trkpt><trkpt lat="59.0750647243" lon="30.0276228692"><ele>77.04</ele><time>2026-04-25T13:26:44Z</time></trkpt><trkpt lat="59.0750623774" lon="30.0277732406"><ele>77.04</ele><time>2026-04-25T13:26:55Z</time></trkpt><trkpt lat="59.0750749502" lon="30.0278809480"><ele>78.00</ele><time>2026-04-25T13:27:09Z</time></trkpt><trkpt lat="59.0750854276" lon="30.0279598217"><ele>78.00</ele><time>2026-04-25T13:27:21Z</time></trkpt><trkpt lat="59.0751458611" lon="30.0280486699"><ele>78.00</ele><time>2026-04-25T13:27:33Z</time></trkpt><trkpt lat="59.0751918778" lon="30.0281274598"><ele>78.00</ele><time>2026-04-25T13:27:46Z</time></trkpt><trkpt lat="59.0751954820" lon="30.0282664318"><ele>78.00</ele><time>2026-04-25T13:27:59Z</time></trkpt><trkpt lat="59.0752046183" lon="30.0283281226"><ele>78.00</ele><time>2026-04-25T13:28:10Z</time></trkpt><trkpt lat="59.0751635469" lon="30.0284401048"><ele>78.48</ele><time>2026-04-25T13:28:22Z</time></trkpt><trkpt lat="59.0751365572" lon="30.0285820942"><ele>78.97</ele><time>2026-04-25T13:28:35Z</time></trkpt><trkpt lat="59.0751340427" lon="30.0286769774"><ele>77.52</ele><time>2026-04-25T13:28:50Z</time></trkpt><trkpt lat="59.0751570091" lon="30.0288203917"><ele>77.52</ele><time>2026-04-25T13:29:05Z</time></trkpt><trkpt lat="59.0752399899" lon="30.0288449507"><ele>77.52</ele><time>2026-04-25T13:29:22Z</time></trkpt><trkpt lat="59.0752195381" lon="30.0288945716"><ele>77.52</ele><time>2026-04-25T13:30:06Z</time></trkpt><trkpt lat="59.0751831606" lon="30.0290120021"><ele>77.52</ele><time>2026-04-25T13:30:29Z</time></trkpt><trkpt lat="59.0751979966" lon="30.0290368963"><ele>77.52</ele><time>2026-04-25T13:30:32Z</time></trkpt><trkpt lat="59.0752434265" lon="30.0291352160"><ele>77.52</ele><time>2026-04-25T13:30:47Z</time></trkpt><trkpt lat="59.0752107371" lon="30.0292671472"><ele>77.52</ele><time>2026-04-25T13:31:00Z</time></trkpt><trkpt lat="59.0752480365" lon="30.0293660536"><ele>77.52</ele><time>2026-04-25T13:31:15Z</time></trkpt><trkpt lat="59.0752829053" lon="30.0294472743"><ele>77.52</ele><time>2026-04-25T13:31:27Z</time></trkpt><trkpt lat="59.0752873477" lon="30.0295306742"><ele>77.04</ele><time>2026-04-25T13:31:45Z</time></trkpt><trkpt lat="59.0753212105" lon="30.0296141580"><ele>77.04</ele><time>2026-04-25T13:31:59Z</time></trkpt><trkpt lat="59.0753324423" lon="30.0297311693"><ele>77.04</ele><time>2026-04-25T13:32:12Z</time></trkpt><trkpt lat="59.0752625372" lon="30.0298536289"><ele>78.00</ele><time>2026-04-25T13:32:24Z</time></trkpt><trkpt lat="59.0752770379" lon="30.0299901702"><ele>78.48</ele><time>2026-04-25T13:32:35Z</time></trkpt><trkpt lat="59.0753656346" lon="30.0300724804"><ele>78.48</ele><time>2026-04-25T13:32:46Z</time></trkpt><trkpt lat="59.0754029341" lon="30.0301190838"><ele>78.48</ele><time>2026-04-25T13:32:51Z</time></trkpt><trkpt lat="59.0754644573" lon="30.0302688684"><ele>78.48</ele><time>2026-04-25T13:33:02Z</time></trkpt><trkpt lat="59.0755229630" lon="30.0305181462"><ele>78.48</ele><time>2026-04-25T13:33:15Z</time></trkpt><trkpt lat="59.0755033493" lon="30.0306898914"><ele>78.48</ele><time>2026-04-25T13:33:28Z</time></trkpt><trkpt lat="59.0755404811" lon="30.0310938153"><ele>77.04</ele><time>2026-04-25T13:34:16Z</time></trkpt><trkpt lat="59.0755854920" lon="30.0308459625"><ele>77.04</ele><time>2026-04-25T13:35:03Z</time></trkpt><trkpt lat="59.0754504595" lon="30.0308887940"><ele>78.00</ele><time>2026-04-25T13:35:56Z</time></trkpt><trkpt lat="59.0755682252" lon="30.0310581084"><ele>78.00</ele><time>2026-04-25T13:36:36Z</time></trkpt><trkpt lat="59.0755693149" lon="30.0313578453"><ele>78.00</ele><time>2026-04-25T13:36:56Z</time></trkpt><trkpt lat="59.0756156668" lon="30.0315928739"><ele>78.00</ele><time>2026-04-25T13:37:15Z</time></trkpt><trkpt lat="59.0756400581" lon="30.0318470970"><ele>78.00</ele><time>2026-04-25T13:37:31Z</time></trkpt><trkpt lat="59.0756960493" lon="30.0321707223"><ele>78.00</ele><time>2026-04-25T13:37:52Z</time></trkpt><trkpt lat="59.0757627692" lon="30.0323049165"><ele>78.00</ele><time>2026-04-25T13:38:38Z</time></trkpt><trkpt lat="59.0757670440" lon="30.0324616581"><ele>78.00</ele><time>2026-04-25T13:38:52Z</time></trkpt><trkpt lat="59.0758397151" lon="30.0327183958"><ele>78.00</ele><time>2026-04-25T13:39:11Z</time></trkpt><trkpt lat="59.0758750029" lon="30.0327939168"><ele>78.48</ele><time>2026-04-25T13:39:39Z</time></trkpt><trkpt lat="59.0758877434" lon="30.0329534244"><ele>78.48</ele><time>2026-04-25T13:39:55Z</time></trkpt><trkpt lat="59.0759108774" lon="30.0331637263"><ele>78.48</ele><time>2026-04-25T13:40:12Z</time></trkpt><trkpt lat="59.0759095363" lon="30.0334282592"><ele>78.48</ele><time>2026-04-25T13:40:33Z</time></trkpt><trkpt lat="59.0759306587" lon="30.0337821431"><ele>78.48</ele><time>2026-04-25T13:40:55Z</time></trkpt><trkpt lat="59.0759330895" lon="30.0341016613"><ele>78.48</ele><time>2026-04-25T13:41:14Z</time></trkpt><trkpt lat="59.0759252105" lon="30.0344608258"><ele>78.48</ele><time>2026-04-25T13:41:35Z</time></trkpt><trkpt lat="59.0759807825" lon="30.0348520093"><ele>78.48</ele><time>2026-04-25T13:42:00Z</time></trkpt><trkpt lat="59.0760185011" lon="30.0349321403"><ele>78.00</ele><time>2026-04-25T13:42:17Z</time></trkpt><trkpt lat="59.0760136396" lon="30.0349320564"><ele>78.00</ele><time>2026-04-25T13:42:45Z</time></trkpt><trkpt lat="59.0760065150" lon="30.0349516701"><ele>78.00</ele><time>2026-04-25T13:43:18Z</time></trkpt><trkpt lat="59.0760071855" lon="30.0349446293"><ele>78.00</ele><time>2026-04-25T13:44:18Z</time></trkpt><trkpt lat="59.0758338477" lon="30.0351297855"><ele>78.00</ele><time>2026-04-25T13:44:41Z</time></trkpt><trkpt lat="59.0757425688" lon="30.0351284444"><ele>78.00</ele><time>2026-04-25T13:44:59Z</time></trkpt><trkpt lat="59.0757107176" lon="30.0351440348"><ele>78.00</ele><time>2026-04-25T13:45:15Z</time></trkpt><trkpt lat="59.0756569896" lon="30.0351754669"><ele>78.00</ele><time>2026-04-25T13:45:25Z</time></trkpt><trkpt lat="59.0756002441" lon="30.0351575296"><ele>77.52</ele><time>2026-04-25T13:45:39Z</time></trkpt><trkpt lat="59.0755346976" lon="30.0351354014"><ele>77.52</ele><time>2026-04-25T13:45:53Z</time></trkpt><trkpt lat="59.0754635353" lon="30.0351496506"><ele>77.52</ele><time>2026-04-25T13:46:06Z</time></trkpt><trkpt lat="59.0754683968" lon="30.0351307914"><ele>77.52</ele><time>2026-04-25T13:46:31Z</time></trkpt><trkpt lat="59.0754723363" lon="30.0350797456"><ele>77.52</ele><time>2026-04-25T13:47:26Z</time></trkpt><trkpt lat="59.0754463524" lon="30.0348763168"><ele>77.52</ele><time>2026-04-25T13:47:41Z</time></trkpt><trkpt lat="59.0754307620" lon="30.0347902346"><ele>77.52</ele><time>2026-04-25T13:47:52Z</time></trkpt><trkpt lat="59.0754057840" lon="30.0347209163"><ele>77.52</ele><time>2026-04-25T13:47:57Z</time></trkpt><trkpt lat="59.0754029341" lon="30.0345829502"><ele>77.04</ele><time>2026-04-25T13:48:05Z</time></trkpt><trkpt lat="59.0753487870" lon="30.0343558006"><ele>77.04</ele><time>2026-04-25T13:48:19Z</time></trkpt><trkpt lat="59.0753166843" lon="30.0341876596"><ele>77.04</ele><time>2026-04-25T13:48:32Z</time></trkpt><trkpt lat="59.0753015131" lon="30.0341151562"><ele>77.04</ele><time>2026-04-25T13:48:37Z</time></trkpt><trkpt lat="59.0753039438" lon="30.0340652000"><ele>77.04</ele><time>2026-04-25T13:48:40Z</time></trkpt><trkpt lat="59.0752545744" lon="30.0337403174"><ele>77.04</ele><time>2026-04-25T13:48:57Z</time></trkpt><trkpt lat="59.0752442647" lon="30.0336701609"><ele>77.04</ele><time>2026-04-25T13:49:01Z</time></trkpt><trkpt lat="59.0751872677" lon="30.0333553366"><ele>77.04</ele><time>2026-04-25T13:49:18Z</time></trkpt><trkpt lat="59.0751624573" lon="30.0331858546"><ele>77.04</ele><time>2026-04-25T13:49:31Z</time></trkpt><trkpt lat="59.0751662292" lon="30.0330318790"><ele>77.04</ele><time>2026-04-25T13:49:47Z</time></trkpt><trkpt lat="59.0751445200" lon="30.0328675937"><ele>77.04</ele><time>2026-04-25T13:50:04Z</time></trkpt><trkpt lat="59.0751191229" lon="30.0327434577"><ele>77.04</ele><time>2026-04-25T13:50:17Z</time></trkpt><trkpt lat="59.0751269180" lon="30.0325257797"><ele>77.04</ele><time>2026-04-25T13:50:31Z</time></trkpt><trkpt lat="59.0750980005" lon="30.0324020628"><ele>77.04</ele><time>2026-04-25T13:50:41Z</time></trkpt><trkpt lat="59.0750862658" lon="30.0323424675"><ele>77.04</ele><time>2026-04-25T13:50:46Z</time></trkpt><trkpt lat="59.0750741120" lon="30.0323126279"><ele>77.04</ele><time>2026-04-25T13:50:48Z</time></trkpt><trkpt lat="59.0750653949" lon="30.0321159884"><ele>77.04</ele><time>2026-04-25T13:51:00Z</time></trkpt><trkpt lat="59.0750493854" lon="30.0319344364"><ele>77.04</ele><time>2026-04-25T13:51:11Z</time></trkpt><trkpt lat="59.0750445239" lon="30.0318829715"><ele>77.04</ele><time>2026-04-25T13:51:15Z</time></trkpt><trkpt lat="59.0750420932" lon="30.0317754317"><ele>77.04</ele><time>2026-04-25T13:51:28Z</time></trkpt><trkpt lat="59.0750368126" lon="30.0317118131"><ele>78.00</ele><time>2026-04-25T13:51:45Z</time></trkpt><trkpt lat="59.0749864373" lon="30.0316974800"><ele>77.04</ele><time>2026-04-25T13:52:34Z</time></trkpt><trkpt lat="59.0750256646" lon="30.0316119008"><ele>77.04</ele><time>2026-04-25T13:53:06Z</time></trkpt><trkpt lat="59.0750145167" lon="30.0316562410"><ele>77.04</ele><time>2026-04-25T13:53:17Z</time></trkpt><trkpt lat="59.0750840027" lon="30.0316924509"><ele>77.04</ele><time>2026-04-25T13:53:46Z</time></trkpt><trkpt lat="59.0750561748" lon="30.0315689854"><ele>77.52</ele><time>2026-04-25T13:54:01Z</time></trkpt><trkpt lat="59.0750137623" lon="30.0314825680"><ele>77.52</ele><time>2026-04-25T13:54:15Z</time></trkpt><trkpt lat="59.0749646444" lon="30.0313495472"><ele>77.52</ele><time>2026-04-25T13:54:27Z</time></trkpt><trkpt lat="59.0749229863" lon="30.0312720984"><ele>77.52</ele><time>2026-04-25T13:54:42Z</time></trkpt><trkpt lat="59.0748962481" lon="30.0310918037"><ele>77.52</ele><time>2026-04-25T13:54:59Z</time></trkpt><trkpt lat="59.0748713538" lon="30.0309284404"><ele>77.52</ele><time>2026-04-25T13:55:11Z</time></trkpt><trkpt lat="59.0748618823" lon="30.0308936555"><ele>77.52</ele><time>2026-04-25T13:55:13Z</time></trkpt><trkpt lat="59.0748402569" lon="30.0308357365"><ele>77.52</ele><time>2026-04-25T13:55:16Z</time></trkpt><trkpt lat="59.0748113394" lon="30.0305997860"><ele>78.00</ele><time>2026-04-25T13:55:29Z</time></trkpt><trkpt lat="59.0747778118" lon="30.0304435473"><ele>78.00</ele><time>2026-04-25T13:55:44Z</time></trkpt><trkpt lat="59.0746917296" lon="30.0302724726"><ele>78.00</ele><time>2026-04-25T13:56:02Z</time></trkpt><trkpt lat="59.0746807493" lon="30.0302469078"><ele>78.97</ele><time>2026-04-25T13:56:05Z</time></trkpt><trkpt lat="59.0746295359" lon="30.0301992148"><ele>79.93</ele><time>2026-04-25T13:56:26Z</time></trkpt><trkpt lat="59.0746474732" lon="30.0301733147"><ele>79.93</ele><time>2026-04-25T13:56:28Z</time></trkpt><trkpt lat="59.0747040510" lon="30.0299329218"><ele>79.93</ele><time>2026-04-25T13:56:42Z</time></trkpt><trkpt lat="59.0746912267" lon="30.0297984760"><ele>79.93</ele><time>2026-04-25T13:56:52Z</time></trkpt><trkpt lat="59.0746734571" lon="30.0297265593"><ele>79.93</ele><time>2026-04-25T13:56:57Z</time></trkpt><trkpt lat="59.0746624768" lon="30.0295244716"><ele>80.41</ele><time>2026-04-25T13:57:08Z</time></trkpt><trkpt lat="59.0746452939" lon="30.0293178577"><ele>80.41</ele><time>2026-04-25T13:57:21Z</time></trkpt><trkpt lat="59.0746235847" lon="30.0290868524"><ele>80.41</ele><time>2026-04-25T13:57:36Z</time></trkpt><trkpt lat="59.0746132750" lon="30.0288550928"><ele>80.41</ele><time>2026-04-25T13:57:54Z</time></trkpt><trkpt lat="59.0745597985" lon="30.0286010373"><ele>80.41</ele><time>2026-04-25T13:58:25Z</time></trkpt><trkpt lat="59.0745167993" lon="30.0284320582"><ele>80.41</ele><time>2026-04-25T13:58:45Z</time></trkpt><trkpt lat="59.0744764823" lon="30.0282403640"><ele>80.41</ele><time>2026-04-25T13:59:03Z</time></trkpt><trkpt lat="59.0744186472" lon="30.0280513521"><ele>80.41</ele><time>2026-04-25T13:59:24Z</time></trkpt><trkpt lat="59.0743242670" lon="30.0280223507"><ele>80.41</ele><time>2026-04-25T14:00:11Z</time></trkpt><trkpt lat="59.0743344929" lon="30.0280873943"><ele>80.41</ele><time>2026-04-25T14:00:55Z</time></trkpt><trkpt lat="59.0743127838" lon="30.0281062536"><ele>80.41</ele><time>2026-04-25T14:01:39Z</time></trkpt><trkpt lat="59.0742979478" lon="30.0281490851"><ele>80.41</ele><time>2026-04-25T14:01:56Z</time></trkpt><trkpt lat="59.0742750652" lon="30.0282170624"><ele>80.41</ele><time>2026-04-25T14:02:16Z</time></trkpt><trkpt lat="59.0741790086" lon="30.0282814354"><ele>80.41</ele><time>2026-04-25T14:02:32Z</time></trkpt><trkpt lat="59.0741184074" lon="30.0283722114"><ele>80.41</ele><time>2026-04-25T14:02:45Z</time></trkpt><trkpt lat="59.0740650147" lon="30.0284286216"><ele>80.89</ele><time>2026-04-25T14:02:57Z</time></trkpt><trkpt lat="59.0739916731" lon="30.0284841936"><ele>80.89</ele><time>2026-04-25T14:03:08Z</time></trkpt><trkpt lat="59.0739339218" lon="30.0286420248"><ele>80.89</ele><time>2026-04-25T14:03:28Z</time></trkpt><trkpt lat="59.0739250369" lon="30.0286766421"><ele>80.89</ele><time>2026-04-25T14:03:31Z</time></trkpt><trkpt lat="59.0739386994" lon="30.0287840143"><ele>80.89</ele><time>2026-04-25T14:03:45Z</time></trkpt><trkpt lat="59.0739875659" lon="30.0287302025"><ele>80.89</ele><time>2026-04-25T14:04:45Z</time></trkpt><trkpt lat="59.0740086883" lon="30.0288640615"><ele>80.89</ele><time>2026-04-25T14:04:56Z</time></trkpt><trkpt lat="59.0740373544" lon="30.0289280992"><ele>80.89</ele><time>2026-04-25T14:05:07Z</time></trkpt><trkpt lat="59.0740854666" lon="30.0290415902"><ele>80.89</ele><time>2026-04-25T14:05:19Z</time></trkpt><trkpt lat="59.0741101932" lon="30.0291689951"><ele>80.89</ele><time>2026-04-25T14:05:31Z</time></trkpt><trkpt lat="59.0741365124" lon="30.0293618627"><ele>80.89</ele><time>2026-04-25T14:05:45Z</time></trkpt><trkpt lat="59.0742446389" lon="30.0294996612"><ele>81.37</ele><time>2026-04-25T14:06:02Z</time></trkpt><trkpt lat="59.0742759034" lon="30.0296476018"><ele>81.37</ele><time>2026-04-25T14:06:15Z</time></trkpt><trkpt lat="59.0742777474" lon="30.0296684727"><ele>81.37</ele><time>2026-04-25T14:06:17Z</time></trkpt><trkpt lat="59.0742287133" lon="30.0298484322"><ele>81.37</ele><time>2026-04-25T14:06:30Z</time></trkpt><trkpt lat="59.0741767455" lon="30.0300199259"><ele>81.85</ele><time>2026-04-25T14:06:44Z</time></trkpt><trkpt lat="59.0741995443" lon="30.0301087741"><ele>81.85</ele><time>2026-04-25T14:06:58Z</time></trkpt><trkpt lat="59.0742338262" lon="30.0302024838"><ele>81.85</ele><time>2026-04-25T14:07:12Z</time></trkpt><trkpt lat="59.0742618218" lon="30.0303610694"><ele>81.85</ele><time>2026-04-25T14:07:24Z</time></trkpt><trkpt lat="59.0742468182" lon="30.0305220857"><ele>81.85</ele><time>2026-04-25T14:07:36Z</time></trkpt><trkpt lat="59.0742130391" lon="30.0306768157"><ele>80.89</ele><time>2026-04-25T14:07:49Z</time></trkpt><trkpt lat="59.0741883125" lon="30.0308032986"><ele>80.89</ele><time>2026-04-25T14:08:01Z</time></trkpt><trkpt lat="59.0742498357" lon="30.0309058931"><ele>81.85</ele><time>2026-04-25T14:08:22Z</time></trkpt><trkpt lat="59.0742811002" lon="30.0309544243"><ele>81.85</ele><time>2026-04-25T14:08:27Z</time></trkpt><trkpt lat="59.0743185673" lon="30.0311177038"><ele>80.89</ele><time>2026-04-25T14:08:40Z</time></trkpt><trkpt lat="59.0743490774" lon="30.0312317815"><ele>80.89</ele><time>2026-04-25T14:08:58Z</time></trkpt><trkpt lat="59.0743250214" lon="30.0313194562"><ele>80.89</ele><time>2026-04-25T14:09:17Z</time></trkpt><trkpt lat="59.0743698645" lon="30.0314959791"><ele>80.89</ele><time>2026-04-25T14:09:32Z</time></trkpt><trkpt lat="59.0744323097" lon="30.0316386390"><ele>80.89</ele><time>2026-04-25T14:09:49Z</time></trkpt><trkpt lat="59.0744378418" lon="30.0318701472"><ele>80.89</ele><time>2026-04-25T14:10:02Z</time></trkpt><trkpt lat="59.0744479839" lon="30.0321128033"><ele>80.89</ele><time>2026-04-25T14:10:19Z</time></trkpt><trkpt lat="59.0744702797" lon="30.0323055033"><ele>80.89</ele><time>2026-04-25T14:10:32Z</time></trkpt><trkpt lat="59.0744676813" lon="30.0323434733"><ele>80.89</ele><time>2026-04-25T14:10:35Z</time></trkpt><trkpt lat="59.0744572878" lon="30.0325603131"><ele>80.89</ele><time>2026-04-25T14:10:52Z</time></trkpt><trkpt lat="59.0744542703" lon="30.0327164680"><ele>80.89</ele><time>2026-04-25T14:11:06Z</time></trkpt><trkpt lat="59.0744577907" lon="30.0328810047"><ele>80.89</ele><time>2026-04-25T14:11:19Z</time></trkpt><trkpt lat="59.0744659211" lon="30.0328944158"><ele>80.89</ele><time>2026-04-25T14:11:22Z</time></trkpt><trkpt lat="59.0745111834" lon="30.0330188032"><ele>80.89</ele><time>2026-04-25T14:11:36Z</time></trkpt><trkpt lat="59.0745603014" lon="30.0331767183"><ele>80.89</ele><time>2026-04-25T14:11:54Z</time></trkpt><trkpt lat="59.0745662525" lon="30.0332120899"><ele>80.89</ele><time>2026-04-25T14:11:57Z</time></trkpt><trkpt lat="59.0745880455" lon="30.0333218090"><ele>80.89</ele><time>2026-04-25T14:12:08Z</time></trkpt><trkpt lat="59.0745582059" lon="30.0333891995"><ele>80.89</ele><time>2026-04-25T14:12:33Z</time></trkpt><trkpt lat="59.0745531768" lon="30.0334882736"><ele>80.89</ele><time>2026-04-25T14:12:59Z</time></trkpt><trkpt lat="59.0745706949" lon="30.0335582625"><ele>80.89</ele><time>2026-04-25T14:13:13Z</time></trkpt><trkpt lat="59.0745799989" lon="30.0336265750"><ele>80.89</ele><time>2026-04-25T14:13:37Z</time></trkpt><trkpt lat="59.0745825972" lon="30.0336863380"><ele>80.41</ele><time>2026-04-25T14:14:02Z</time></trkpt><trkpt lat="59.0746084135" lon="30.0338976458"><ele>80.41</ele><time>2026-04-25T14:14:19Z</time></trkpt><trkpt lat="59.0746314637" lon="30.0339551456"><ele>80.41</ele><time>2026-04-25T14:14:31Z</time></trkpt><trkpt lat="59.0746515803" lon="30.0340136513"><ele>80.41</ele><time>2026-04-25T14:15:01Z</time></trkpt><trkpt lat="59.0746534243" lon="30.0341294054"><ele>80.41</ele><time>2026-04-25T14:15:15Z</time></trkpt><trkpt lat="59.0746214055" lon="30.0342024956"><ele>80.41</ele><time>2026-04-25T14:15:27Z</time></trkpt><trkpt lat="59.0746429469" lon="30.0343291461"><ele>80.41</ele><time>2026-04-25T14:15:40Z</time></trkpt><trkpt lat="59.0746675059" lon="30.0344872288"><ele>79.93</ele><time>2026-04-25T14:15:55Z</time></trkpt><trkpt lat="59.0746975970" lon="30.0346076768"><ele>79.93</ele><time>2026-04-25T14:16:08Z</time></trkpt><trkpt lat="59.0747065656" lon="30.0347950123"><ele>79.93</ele><time>2026-04-25T14:16:23Z</time></trkpt><trkpt lat="59.0747040510" lon="30.0349706970"><ele>79.93</ele><time>2026-04-25T14:16:37Z</time></trkpt><trkpt lat="59.0747089125" lon="30.0351622235"><ele>79.93</ele><time>2026-04-25T14:16:52Z</time></trkpt><trkpt lat="59.0747103374" lon="30.0352778099"><ele>79.45</ele><time>2026-04-25T14:17:04Z</time></trkpt><trkpt lat="59.0747060627" lon="30.0354244094"><ele>79.45</ele><time>2026-04-25T14:17:17Z</time></trkpt><trkpt lat="59.0747060627" lon="30.0355788041"><ele>79.45</ele><time>2026-04-25T14:17:31Z</time></trkpt><trkpt lat="59.0747265145" lon="30.0356508885"><ele>79.45</ele><time>2026-04-25T14:17:43Z</time></trkpt><trkpt lat="59.0747498162" lon="30.0357656367"><ele>79.93</ele><time>2026-04-25T14:18:21Z</time></trkpt><trkpt lat="59.0747799072" lon="30.0358578376"><ele>79.93</ele><time>2026-04-25T14:18:33Z</time></trkpt><trkpt lat="59.0747100022" lon="30.0360994041"><ele>79.93</ele><time>2026-04-25T14:19:01Z</time></trkpt><trkpt lat="59.0745813400" lon="30.0361499470"><ele>79.93</ele><time>2026-04-25T14:19:17Z</time></trkpt><trkpt lat="59.0744549409" lon="30.0361248851"><ele>79.93</ele><time>2026-04-25T14:19:35Z</time></trkpt><trkpt lat="59.0742008854" lon="30.0362531282"><ele>79.93</ele><time>2026-04-25T14:20:13Z</time></trkpt><trkpt lat="59.0742194932" lon="30.0360329356"><ele>79.93</ele><time>2026-04-25T14:20:28Z</time></trkpt></trkseg></trk></gpx>